Observation data for Big Lake on 01/19/2019      Previous  Date  Next       Current Mesonet Observations  Soil Data  Daily Summary Page  Observations in Plain Language
KBI1 190600Z 31016KT 10/02 A3002 RMK A01 T01000015  RH  056%=      5-min Rain = 0
KBI1 190601Z 31020G25KT 10/02 A3002 RMK A01 T00990015  RH  056%=      5-min Rain = 0
KBI1 190602Z 31024G29KT 10/01 A3002 RMK A01 T00980014  RH  056%=      5-min Rain = 0
KBI1 190603Z 30023G28KT 10/01 A3002 RMK A01 T00980013  RH  056%=      5-min Rain = 0
KBI1 190604Z 30025G30KT 10/01 A3002 RMK A01 T00970014  RH  056%=      5-min Rain = 0
KBI1 190605Z 31025G30KT 10/01 A3002 RMK A01 T00960014  RH  057%=      5-min Rain = 0
KBI1 190606Z 31023G28KT 10/01 A3002 RMK A01 T00950014  RH  057%=      5-min Rain = 0
KBI1 190607Z 30022KT 09/01 A3002 RMK A01 T00940014  RH  057%=      5-min Rain = 0
KBI1 190608Z 30023G30KT 09/01 A3003 RMK A01 T00930014  RH  058%=      5-min Rain = 0
KBI1 190609Z 30022G27KT 09/01 A3003 RMK A01 T00930014  RH  058%=      5-min Rain = 0
KBI1 190610Z 30023KT 09/02 A3003 RMK A01 T00920015  RH  058%=      5-min Rain = 0
KBI1 190611Z 30022KT 09/02 A3003 RMK A01 T00910015  RH  059%=      5-min Rain = 0
KBI1 190612Z 31022G29KT 09/02 A3003 RMK A01 T00900015  RH  059%=      5-min Rain = 0
KBI1 190613Z 31023KT 09/02 A3003 RMK A01 T00900015  RH  060%=      5-min Rain = 0
KBI1 190614Z 31024G29KT 09/02 A3003 RMK A01 T00900016  RH  060%=      5-min Rain = 0
KBI1 190615Z 31026KT 09/02 A3003 RMK A01 T00900016  RH  060%=      5-min Rain = 0
KBI1 190616Z 31022KT 09/02 A3003 RMK A01 T00900016  RH  060%=      5-min Rain = 0
KBI1 190617Z 32019KT 09/02 A3004 RMK A01 T00890016  RH  060%=      5-min Rain = 0
KBI1 190618Z 31017KT 09/02 A3004 RMK A01 T00880016  RH  061%=      5-min Rain = 0
KBI1 190619Z 32019G25KT 09/02 A3004 RMK A01 T00870017  RH  061%=      5-min Rain = 0
KBI1 190620Z 32020G28KT 09/02 A3004 RMK A01 T00870017  RH  061%=      5-min Rain = 0
KBI1 190621Z 31025G30KT 09/02 A3004 RMK A01 T00870018  RH  062%=      5-min Rain = 0
KBI1 190622Z 32021KT 09/02 A3004 RMK A01 T00870018  RH  062%=      5-min Rain = 0
KBI1 190623Z 32022G30KT 09/02 A3004 RMK A01 T00860019  RH  063%=      5-min Rain = 0
KBI1 190624Z 32020G26KT 09/02 A3004 RMK A01 T00860019  RH  063%=      5-min Rain = 0
KBI1 190625Z 32020G26KT 09/02 A3004 RMK A01 T00850019  RH  063%=      5-min Rain = 0
KBI1 190626Z 32019KT 08/02 A3005 RMK A01 T00840019  RH  064%=      5-min Rain = 0
KBI1 190627Z 32019G26KT 08/02 A3005 RMK A01 T00830019  RH  064%=      5-min Rain = 0
KBI1 190628Z 32021G27KT 08/02 A3005 RMK A01 T00820019  RH  064%=      5-min Rain = 0
KBI1 190629Z 32018KT 08/02 A3005 RMK A01 T00820019  RH  064%=      5-min Rain = 0
KBI1 190630Z 32020G27KT 08/02 A3005 RMK A01 T00820018  RH  064%=      5-min Rain = 0
KBI1 190631Z 32020G26KT 08/02 A3005 RMK A01 T00810016  RH  063%=      5-min Rain = 0
KBI1 190632Z 32020G27KT 08/02 A3005 RMK A01 T00810016  RH  063%=      5-min Rain = 0
KBI1 190633Z 32022G29KT 08/02 A3005 RMK A01 T00810016  RH  064%=      5-min Rain = 0
KBI1 190634Z 32022G27KT 08/02 A3005 RMK A01 T00810015  RH  063%=      5-min Rain = 0
KBI1 190635Z 32020G26KT 08/02 A3005 RMK A01 T00800015  RH  064%=      5-min Rain = 0
KBI1 190636Z 32019G25KT 08/02 A3005 RMK A01 T00800016  RH  064%=      5-min Rain = 0
KBI1 190637Z 32016G22KT 08/02 A3005 RMK A01 T00800015  RH  064%=      5-min Rain = 0
KBI1 190638Z 32020G25KT 08/02 A3005 RMK A01 T00790015  RH  064%=      5-min Rain = 0
KBI1 190639Z 32018G24KT 08/02 A3005 RMK A01 T00780015  RH  064%=      5-min Rain = 0
KBI1 190640Z 32018G24KT 08/02 A3005 RMK A01 T00780015  RH  064%=      5-min Rain = 0
KBI1 190641Z 32017KT 08/02 A3005 RMK A01 T00780015  RH  064%=      5-min Rain = 0
KBI1 190642Z 32018KT 08/02 A3005 RMK A01 T00770015  RH  065%=      5-min Rain = 0
KBI1 190643Z 32016G22KT 08/01 A3005 RMK A01 T00760014  RH  065%=      5-min Rain = 0
KBI1 190644Z 32021G30KT 08/01 A3005 RMK A01 T00750014  RH  065%=      5-min Rain = 0
KBI1 190645Z 32023KT 08/01 A3005 RMK A01 T00750014  RH  065%=      5-min Rain = 0
KBI1 190646Z 32018G25KT 08/01 A3005 RMK A01 T00750013  RH  065%=      5-min Rain = 0
KBI1 190647Z 32020G28KT 08/01 A3005 RMK A01 T00750014  RH  065%=      5-min Rain = 0
KBI1 190648Z 32022G31KT 08/01 A3005 RMK A01 T00750014  RH  065%=      5-min Rain = 0
KBI1 190649Z 32019G25KT 08/01 A3005 RMK A01 T00750013  RH  065%=      5-min Rain = 0
KBI1 190650Z 33018G24KT 07/01 A3005 RMK A01 T00740013  RH  065%=      5-min Rain = 0
KBI1 190651Z 33018G24KT 07/01 A3005 RMK A01 T00740013  RH  065%=      5-min Rain = 0
KBI1 190652Z 32023G32KT 07/01 A3005 RMK A01 T00730013  RH  066%=      5-min Rain = 0
KBI1 190653Z 32022G28KT 07/01 A3005 RMK A01 T00730013  RH  065%=      5-min Rain = 0
KBI1 190654Z 32020KT 07/01 A3005 RMK A01 T00730012  RH  065%=      5-min Rain = 0
KBI1 190655Z 33021KT 07/01 A3005 RMK A01 T00730012  RH  065%=      5-min Rain = 0
KBI1 190656Z 33023G34KT 07/01 A3005 RMK A01 T00730012  RH  065%=      5-min Rain = 0
KBI1 190657Z 33027G34KT 07/01 A3005 RMK A01 T00730011  RH  064%=      5-min Rain = 0
KBI1 190658Z 33027G33KT 07/01 A3005 RMK A01 T00740010  RH  064%=      5-min Rain = 0
KBI1 190659Z 32021G28KT 07/01 A3005 RMK A01 T00740010  RH  064%=      5-min Rain = 0
KBI1 190700Z 33025G35KT 07/01 A3005 RMK A01 T00740010  RH  064%=      5-min Rain = 0
KBI1 190701Z 33026G35KT 07/01 A3005 RMK A01 T00740009  RH  064%=      5-min Rain = 0
KBI1 190702Z 33021G27KT 07/01 A3005 RMK A01 T00740009  RH  064%=      5-min Rain = 0
KBI1 190703Z 32019G28KT 07/01 A3005 RMK A01 T00730009  RH  064%=      5-min Rain = 0
KBI1 190704Z 33023G30KT 07/01 A3005 RMK A01 T00720009  RH  064%=      5-min Rain = 0
KBI1 190705Z 32024G30KT 07/01 A3005 RMK A01 T00720009  RH  064%=      5-min Rain = 0
KBI1 190706Z 33029G34KT 07/01 A3005 RMK A01 T00720009  RH  064%=      5-min Rain = 0
KBI1 190707Z 33030KT 07/01 A3005 RMK A01 T00730009  RH  064%=      5-min Rain = 0
KBI1 190708Z 33028G34KT 07/01 A3005 RMK A01 T00730009  RH  064%=      5-min Rain = 0
KBI1 190709Z 33025G30KT 07/01 A3005 RMK A01 T00730010  RH  064%=      5-min Rain = 0
KBI1 190710Z 33026G31KT 07/01 A3006 RMK A01 T00730010  RH  064%=      5-min Rain = 0
KBI1 190711Z 33020G25KT 07/01 A3006 RMK A01 T00730011  RH  065%=      5-min Rain = 0
KBI1 190712Z 33025KT 07/01 A3006 RMK A01 T00720010  RH  065%=      5-min Rain = 0
KBI1 190713Z 33024KT 07/01 A3006 RMK A01 T00710011  RH  065%=      5-min Rain = 0
KBI1 190714Z 33022G29KT 07/01 A3006 RMK A01 T00710011  RH  066%=      5-min Rain = 0
KBI1 190715Z 33020G26KT 07/01 A3006 RMK A01 T00710012  RH  066%=      5-min Rain = 0
KBI1 190716Z 33025G31KT 07/01 A3006 RMK A01 T00700012  RH  066%=      5-min Rain = 0
KBI1 190717Z 33023G28KT 07/01 A3006 RMK A01 T00700012  RH  067%=      5-min Rain = 0
KBI1 190718Z 33024G29KT 07/01 A3006 RMK A01 T00710013  RH  067%=      5-min Rain = 0
KBI1 190719Z 33020KT 07/01 A3006 RMK A01 T00710013  RH  067%=      5-min Rain = 0
KBI1 190720Z 33016G22KT 07/01 A3006 RMK A01 T00700014  RH  067%=      5-min Rain = 0
KBI1 190721Z 33020KT 07/01 A3006 RMK A01 T00700014  RH  068%=      5-min Rain = 0
KBI1 190722Z 33019G24KT 07/02 A3006 RMK A01 T00700015  RH  068%=      5-min Rain = 0
KBI1 190723Z 32022KT 07/02 A3006 RMK A01 T00710015  RH  068%=      5-min Rain = 0
KBI1 190724Z 33022KT 07/02 A3006 RMK A01 T00700015  RH  068%=      5-min Rain = 0
KBI1 190725Z 32021KT 07/02 A3006 RMK A01 T00710016  RH  068%=      5-min Rain = 0
KBI1 190726Z 33017KT 07/02 A3006 RMK A01 T00710016  RH  068%=      5-min Rain = 0
KBI1 190727Z 33017G22KT 07/02 A3006 RMK A01 T00710016  RH  068%=      5-min Rain = 0
KBI1 190728Z 32019G26KT 07/02 A3006 RMK A01 T00700016  RH  068%=      5-min Rain = 0
KBI1 190729Z 32023G29KT 07/01 A3006 RMK A01 T00700014  RH  067%=      5-min Rain = 0
KBI1 190730Z 32016G21KT 07/01 A3006 RMK A01 T00710013  RH  067%=      5-min Rain = 0
KBI1 190731Z 33025KT 07/01 A3006 RMK A01 T00690009  RH  065%=      5-min Rain = 0
KBI1 190732Z 33021G27KT 07/01 A3006 RMK A01 T00680006  RH  065%=      5-min Rain = 0
KBI1 190733Z 32024G30KT 07/01 A3006 RMK A01 T00660005  RH  065%=      5-min Rain = 0
KBI1 190734Z 32018KT 07/00 A3006 RMK A01 T00650004  RH  065%=      5-min Rain = 0
KBI1 190735Z 32020G25KT 06/00 A3007 RMK A01 T00640004  RH  065%=      5-min Rain = 0
KBI1 190736Z 32020G26KT 06/00 A3007 RMK A01 T00640004  RH  065%=      5-min Rain = 0
KBI1 190737Z 32023G29KT 06/00 A3007 RMK A01 T00630004  RH  066%=      5-min Rain = 0
KBI1 190738Z 33021G27KT 06/00 A3007 RMK A01 T00630003  RH  066%=      5-min Rain = 0
KBI1 190739Z 32020G25KT 06/00 A3007 RMK A01 T00620003  RH  066%=      5-min Rain = 0
KBI1 190740Z 32019G27KT 06/00 A3007 RMK A01 T00610004  RH  067%=      5-min Rain = 0
KBI1 190741Z 32024G30KT 06/00 A3007 RMK A01 T00610004  RH  067%=      5-min Rain = 0
KBI1 190742Z 33021G27KT 06/00 A3007 RMK A01 T00610004  RH  067%=      5-min Rain = 0
KBI1 190743Z 33019G29KT 06/01 A3008 RMK A01 T00610005  RH  067%=      5-min Rain = 0
KBI1 190744Z 33022G27KT 06/01 A3008 RMK A01 T00600005  RH  068%=      5-min Rain = 0
KBI1 190745Z 33027G32KT 06/01 A3008 RMK A01 T00600005  RH  068%=      5-min Rain = 0
KBI1 190746Z 33025KT 06/01 A3008 RMK A01 T00600005  RH  068%=      5-min Rain = 0
KBI1 190747Z 34023G30KT 06/01 A3008 RMK A01 T00590005  RH  068%=      5-min Rain = 0
KBI1 190748Z 34020G25KT 06/01 A3008 RMK A01 T00580005  RH  069%=      5-min Rain = 0
KBI1 190749Z 33021G28KT 06/00 A3008 RMK A01 T00570004  RH  069%=      5-min Rain = 0
KBI1 190750Z 33019G24KT 06/00 A3008 RMK A01 T00560004  RH  069%=      5-min Rain = 0
KBI1 190751Z 32021G26KT 06/00 A3008 RMK A01 T00560004  RH  069%=      5-min Rain = 0
KBI1 190752Z 33022G29KT 06/00 A3008 RMK A01 T00560003  RH  069%=      5-min Rain = 0
KBI1 190753Z 32022KT 06/00 A3008 RMK A01 T00560001  RH  068%=      5-min Rain = 0
KBI1 190754Z 32021G26KT 06/M00 A3008 RMK A01 T00551001  RH  067%=      5-min Rain = 0
KBI1 190755Z 32025G31KT 06/M00 A3008 RMK A01 T00551004  RH  066%=      5-min Rain = 0
KBI1 190756Z 32018G27KT 06/M01 A3008 RMK A01 T00551005  RH  065%=      5-min Rain = 0
KBI1 190757Z 32019G26KT 06/M01 A3008 RMK A01 T00551005  RH  065%=      5-min Rain = 0
KBI1 190758Z 32021G29KT 05/M01 A3008 RMK A01 T00541005  RH  065%=      5-min Rain = 0
KBI1 190759Z 32021KT 05/M01 A3008 RMK A01 T00541006  RH  065%=      5-min Rain = 0
KBI1 190800Z 32022G28KT 05/M01 A3008 RMK A01 T00541006  RH  065%=      5-min Rain = 0
KBI1 190801Z 33023G28KT 05/M01 A3008 RMK A01 T00541007  RH  065%=      5-min Rain = 0
KBI1 190802Z 33027KT 05/M01 A3008 RMK A01 T00531009  RH  064%=      5-min Rain = 0
KBI1 190803Z 33024G32KT 05/M01 A3008 RMK A01 T00531011  RH  063%=      5-min Rain = 0
KBI1 190804Z 33024G34KT 05/M01 A3008 RMK A01 T00531012  RH  063%=      5-min Rain = 0
KBI1 190805Z 32022G28KT 05/M01 A3009 RMK A01 T00521013  RH  063%=      5-min Rain = 0
KBI1 190806Z 33021G28KT 05/M01 A3009 RMK A01 T00521014  RH  062%=      5-min Rain = 0
KBI1 190807Z 33026G32KT 05/M02 A3008 RMK A01 T00521015  RH  062%=      5-min Rain = 0
KBI1 190808Z 33021KT 05/M02 A3009 RMK A01 T00511016  RH  062%=      5-min Rain = 0
KBI1 190809Z 32025G30KT 05/M02 A3009 RMK A01 T00511017  RH  061%=      5-min Rain = 0
KBI1 190810Z 33023G29KT 05/M02 A3009 RMK A01 T00511018  RH  061%=      5-min Rain = 0
KBI1 190811Z 33021G32KT 05/M02 A3009 RMK A01 T00501018  RH  061%=      5-min Rain = 0
KBI1 190812Z 32026G32KT 05/M02 A3009 RMK A01 T00501018  RH  061%=      5-min Rain = 0
KBI1 190813Z 33024KT 05/M02 A3009 RMK A01 T00491019  RH  061%=      5-min Rain = 0
KBI1 190814Z 33021G27KT 05/M02 A3009 RMK A01 T00491019  RH  062%=      5-min Rain = 0
KBI1 190815Z 33019G24KT 05/M02 A3009 RMK A01 T00481019  RH  062%=      5-min Rain = 0
KBI1 190816Z 33019KT 05/M02 A3009 RMK A01 T00481018  RH  062%=      5-min Rain = 0
KBI1 190817Z 33025G32KT 05/M02 A3009 RMK A01 T00471019  RH  063%=      5-min Rain = 0
KBI1 190818Z 33021G27KT 05/M02 A3009 RMK A01 T00471019  RH  062%=      5-min Rain = 0
KBI1 190819Z 33024G33KT 05/M02 A3009 RMK A01 T00471018  RH  063%=      5-min Rain = 0
KBI1 190820Z 33026KT 05/M02 A3009 RMK A01 T00471018  RH  063%=      5-min Rain = 0
KBI1 190821Z 33024G30KT 05/M02 A301 RMK A01 T00471018  RH  063%=      5-min Rain = 0
KBI1 190822Z 33024KT 05/M02 A3009 RMK A01 T00471018  RH  063%=      5-min Rain = 0
KBI1 190823Z 33022G29KT 05/M02 A301 RMK A01 T00471017  RH  063%=      5-min Rain = 0
KBI1 190824Z 33020G26KT 05/M02 A301 RMK A01 T00461017  RH  063%=      5-min Rain = 0
KBI1 190825Z 33021KT 05/M02 A301 RMK A01 T00461016  RH  064%=      5-min Rain = 0
KBI1 190826Z 33021KT 05/M02 A301 RMK A01 T00451016  RH  064%=      5-min Rain = 0
KBI1 190827Z 33021G28KT 05/M02 A301 RMK A01 T00451016  RH  064%=      5-min Rain = 0
KBI1 190828Z 33020KT 05/M02 A301 RMK A01 T00451016  RH  064%=      5-min Rain = 0
KBI1 190829Z 33022G30KT 05/M02 A301 RMK A01 T00451016  RH  065%=      5-min Rain = 0
KBI1 190830Z 32022KT 04/M02 A301 RMK A01 T00441016  RH  065%=      5-min Rain = 0
KBI1 190831Z 33021G26KT 05/M02 A3011 RMK A01 T00451016  RH  065%=      5-min Rain = 0
KBI1 190832Z 32018G24KT 05/M02 A3011 RMK A01 T00451016  RH  065%=      5-min Rain = 0
KBI1 190833Z 33023G30KT 05/M02 A3011 RMK A01 T00451015  RH  065%=      5-min Rain = 0
KBI1 190834Z 33019G26KT 05/M02 A3011 RMK A01 T00451015  RH  065%=      5-min Rain = 0
KBI1 190835Z 33021G26KT 05/M02 A3011 RMK A01 T00451015  RH  065%=      5-min Rain = 0
KBI1 190836Z 33022KT 05/M01 A3011 RMK A01 T00451014  RH  066%=      5-min Rain = 0
KBI1 190837Z 32022KT 05/M01 A3011 RMK A01 T00451014  RH  066%=      5-min Rain = 0
KBI1 190838Z 33023KT 05/M01 A3011 RMK A01 T00451013  RH  066%=      5-min Rain = 0
KBI1 190839Z 33023G34KT 05/M01 A3011 RMK A01 T00451013  RH  066%=      5-min Rain = 0
KBI1 190840Z 33022G27KT 05/M01 A3012 RMK A01 T00451013  RH  066%=      5-min Rain = 0
KBI1 190841Z 32021G30KT 05/M01 A3012 RMK A01 T00451012  RH  066%=      5-min Rain = 0
KBI1 190842Z 32025G31KT 04/M01 A3012 RMK A01 T00441012  RH  067%=      5-min Rain = 0
KBI1 190843Z 32025G31KT 05/M01 A3012 RMK A01 T00451012  RH  067%=      5-min Rain = 0
KBI1 190844Z 32020G26KT 05/M01 A3012 RMK A01 T00451012  RH  066%=      5-min Rain = 0
KBI1 190845Z 33022G30KT 05/M01 A3012 RMK A01 T00451012  RH  067%=      5-min Rain = 0
KBI1 190846Z 32024KT 05/M01 A3012 RMK A01 T00451012  RH  067%=      5-min Rain = 0
KBI1 190847Z 33021G27KT 05/M01 A3012 RMK A01 T00451012  RH  067%=      5-min Rain = 0
KBI1 190848Z 32020G27KT 04/M01 A3012 RMK A01 T00441011  RH  067%=      5-min Rain = 0
KBI1 190849Z 33020G25KT 04/M01 A3012 RMK A01 T00441012  RH  067%=      5-min Rain = 0
KBI1 190850Z 32023G30KT 04/M01 A3012 RMK A01 T00441011  RH  067%=      5-min Rain = 0
KBI1 190851Z 32020G27KT 04/M01 A3012 RMK A01 T00441011  RH  067%=      5-min Rain = 0
KBI1 190852Z 32020G26KT 04/M01 A3012 RMK A01 T00441011  RH  068%=      5-min Rain = 0
KBI1 190853Z 32018KT 04/M01 A3012 RMK A01 T00441011  RH  068%=      5-min Rain = 0
KBI1 190854Z 32018G24KT 04/M01 A3012 RMK A01 T00431011  RH  068%=      5-min Rain = 0
KBI1 190855Z 32018KT 04/M01 A3012 RMK A01 T00431011  RH  068%=      5-min Rain = 0
KBI1 190856Z 33019KT 04/M01 A3012 RMK A01 T00431011  RH  068%=      5-min Rain = 0
KBI1 190857Z 32016G21KT 04/M01 A3012 RMK A01 T00421011  RH  068%=      5-min Rain = 0
KBI1 190858Z 32018G27KT 04/M01 A3012 RMK A01 T00421010  RH  069%=      5-min Rain = 0
KBI1 190859Z 32021G29KT 04/M01 A3012 RMK A01 T00421010  RH  069%=      5-min Rain = 0
KBI1 190900Z 32019G24KT 04/M01 A3012 RMK A01 T00421010  RH  069%=      5-min Rain = 0
KBI1 190901Z 32019G24KT 04/M01 A3012 RMK A01 T00421010  RH  069%=      5-min Rain = 0
KBI1 190902Z 33026G33KT 04/M01 A3012 RMK A01 T00421010  RH  069%=      5-min Rain = 0
KBI1 190903Z 32023G31KT 04/M01 A3012 RMK A01 T00421009  RH  069%=      5-min Rain = 0
KBI1 190904Z 33021G27KT 04/M01 A3012 RMK A01 T00421009  RH  069%=      5-min Rain = 0
KBI1 190905Z 33022G31KT 04/M01 A3012 RMK A01 T00421009  RH  069%=      5-min Rain = 0
KBI1 190906Z 33023G28KT 04/M01 A3012 RMK A01 T00421008  RH  070%=      5-min Rain = 0
KBI1 190907Z 32022KT 04/M01 A3012 RMK A01 T00421008  RH  070%=      5-min Rain = 0
KBI1 190908Z 32025G30KT 04/M01 A3012 RMK A01 T00421008  RH  070%=      5-min Rain = 0
KBI1 190909Z 32022G28KT 04/M01 A3012 RMK A01 T00421008  RH  070%=      5-min Rain = 0
KBI1 190910Z 32021KT 04/M01 A3012 RMK A01 T00421008  RH  070%=      5-min Rain = 0
KBI1 190911Z 33019G25KT 04/M01 A3012 RMK A01 T00421008  RH  070%=      5-min Rain = 0
KBI1 190912Z 33024G30KT 04/M01 A3012 RMK A01 T00411008  RH  070%=      5-min Rain = 0
KBI1 190913Z 32023G30KT 04/M01 A3012 RMK A01 T00411008  RH  070%=      5-min Rain = 0
KBI1 190914Z 32021G27KT 04/M01 A3013 RMK A01 T00411008  RH  070%=      5-min Rain = 0
KBI1 190915Z 32022G29KT 04/M01 A3013 RMK A01 T00411008  RH  070%=      5-min Rain = 0
KBI1 190916Z 32019G24KT 04/M01 A3013 RMK A01 T00411008  RH  071%=      5-min Rain = 0
KBI1 190917Z 32017KT 04/M01 A3013 RMK A01 T00411007  RH  071%=      5-min Rain = 0
KBI1 190918Z 32020G25KT 04/M01 A3013 RMK A01 T00411007  RH  071%=      5-min Rain = 0
KBI1 190919Z 32017G22KT 04/M01 A3013 RMK A01 T00411008  RH  071%=      5-min Rain = 0
KBI1 190920Z 32020G29KT 04/M01 A3013 RMK A01 T00411008  RH  071%=      5-min Rain = 0
KBI1 190921Z 32021G29KT 04/M01 A3013 RMK A01 T00411008  RH  070%=      5-min Rain = 0
KBI1 190922Z 31022G28KT 04/M01 A3013 RMK A01 T00411008  RH  070%=      5-min Rain = 0
KBI1 190923Z 32021G27KT 04/M01 A3013 RMK A01 T00411009  RH  070%=      5-min Rain = 0
KBI1 190924Z 32022G29KT 04/M01 A3013 RMK A01 T00421009  RH  070%=      5-min Rain = 0
KBI1 190925Z 32019G26KT 04/M01 A3013 RMK A01 T00421008  RH  070%=      5-min Rain = 0
KBI1 190926Z 32017G23KT 04/M01 A3013 RMK A01 T00411008  RH  070%=      5-min Rain = 0
KBI1 190927Z 32019G24KT 04/M01 A3013 RMK A01 T00411008  RH  070%=      5-min Rain = 0
KBI1 190928Z 32021G26KT 04/M01 A3014 RMK A01 T00411008  RH  070%=      5-min Rain = 0
KBI1 190929Z 32019G24KT 04/M01 A3014 RMK A01 T00411008  RH  070%=      5-min Rain = 0
KBI1 190930Z 32017G22KT 04/M01 A3014 RMK A01 T00411008  RH  070%=      5-min Rain = 0
KBI1 190931Z 32019KT 04/M01 A3014 RMK A01 T00401008  RH  071%=      5-min Rain = 0
KBI1 190932Z 32020G25KT 04/M01 A3014 RMK A01 T00401008  RH  071%=      5-min Rain = 0
KBI1 190933Z 32016G22KT 04/M01 A3014 RMK A01 T00401008  RH  071%=      5-min Rain = 0
KBI1 190934Z 32016G22KT 04/M01 A3014 RMK A01 T00401008  RH  071%=      5-min Rain = 0
KBI1 190935Z 32018KT 04/M01 A3014 RMK A01 T00401008  RH  071%=      5-min Rain = 0
KBI1 190936Z 32017KT 04/M01 A3014 RMK A01 T00401008  RH  071%=      5-min Rain = 0
KBI1 190937Z 32017G25KT 04/M01 A3014 RMK A01 T00401008  RH  071%=      5-min Rain = 0
KBI1 190938Z 32017G25KT 04/M01 A3014 RMK A01 T00401008  RH  071%=      5-min Rain = 0
KBI1 190939Z 33015G20KT 04/M01 A3015 RMK A01 T00411007  RH  071%=      5-min Rain = 0
KBI1 190940Z 32017G22KT 04/M01 A3015 RMK A01 T00401007  RH  071%=      5-min Rain = 0
KBI1 190941Z 32019G24KT 04/M01 A3015 RMK A01 T00401007  RH  071%=      5-min Rain = 0
KBI1 190942Z 32020KT 04/M01 A3015 RMK A01 T00401007  RH  071%=      5-min Rain = 0
KBI1 190943Z 32019G25KT 04/M01 A3015 RMK A01 T00401007  RH  071%=      5-min Rain = 0
KBI1 190944Z 32019KT 04/M01 A3015 RMK A01 T00401007  RH  071%=      5-min Rain = 0
KBI1 190945Z 32017G23KT 04/M01 A3015 RMK A01 T00401007  RH  071%=      5-min Rain = 0
KBI1 190946Z 32019G26KT 04/M01 A3015 RMK A01 T00401007  RH  072%=      5-min Rain = 0
KBI1 190947Z 32020KT 04/M01 A3015 RMK A01 T00401007  RH  072%=      5-min Rain = 0
KBI1 190948Z 32020KT 04/M01 A3015 RMK A01 T00401007  RH  072%=      5-min Rain = 0
KBI1 190949Z 32016KT 04/M01 A3015 RMK A01 T00401007  RH  071%=      5-min Rain = 0
KBI1 190950Z 32017G22KT 04/M01 A3015 RMK A01 T00391007  RH  072%=      5-min Rain = 0
KBI1 190951Z 33016G24KT 04/M01 A3015 RMK A01 T00391007  RH  072%=      5-min Rain = 0
KBI1 190952Z 32018KT 04/M01 A3015 RMK A01 T00391007  RH  072%=      5-min Rain = 0
KBI1 190953Z 33017G22KT 04/M01 A3015 RMK A01 T00381007  RH  072%=      5-min Rain = 0
KBI1 190954Z 32018KT 04/M01 A3015 RMK A01 T00391007  RH  072%=      5-min Rain = 0
KBI1 190955Z 33016KT 04/M01 A3015 RMK A01 T00391007  RH  072%=      5-min Rain = 0
KBI1 190956Z 32015G23KT 04/M01 A3015 RMK A01 T00391007  RH  072%=      5-min Rain = 0
KBI1 190957Z 32017G23KT 04/M01 A3015 RMK A01 T00381007  RH  072%=      5-min Rain = 0
KBI1 190958Z 32015G21KT 04/M01 A3015 RMK A01 T00381007  RH  073%=      5-min Rain = 0
KBI1 190959Z 32015G21KT 04/M01 A3016 RMK A01 T00391006  RH  073%=      5-min Rain = 0
KBI1 191000Z 32017KT 04/M01 A3015 RMK A01 T00381006  RH  073%=      5-min Rain = 0
KBI1 191001Z 33018G23KT 04/M01 A3016 RMK A01 T00381006  RH  073%=      5-min Rain = 0
KBI1 191002Z 32014G19KT 04/M01 A3016 RMK A01 T00381006  RH  073%=      5-min Rain = 0
KBI1 191003Z 32016G22KT 04/M01 A3016 RMK A01 T00381006  RH  073%=      5-min Rain = 0
KBI1 191004Z 32015KT 04/M01 A3016 RMK A01 T00391006  RH  073%=      5-min Rain = 0
KBI1 191005Z 32019G24KT 04/M01 A3016 RMK A01 T00381006  RH  073%=      5-min Rain = 0
KBI1 191006Z 32014KT 04/M01 A3016 RMK A01 T00391006  RH  073%=      5-min Rain = 0
KBI1 191007Z 32015KT 04/M01 A3016 RMK A01 T00381006  RH  073%=      5-min Rain = 0
KBI1 191008Z 32016KT 04/M01 A3016 RMK A01 T00381005  RH  073%=      5-min Rain = 0
KBI1 191009Z 33016KT 04/M01 A3016 RMK A01 T00371006  RH  073%=      5-min Rain = 0
KBI1 191010Z 32016KT 04/M01 A3016 RMK A01 T00371006  RH  073%=      5-min Rain = 0
KBI1 191011Z 33013KT 04/M01 A3016 RMK A01 T00381006  RH  073%=      5-min Rain = 0
KBI1 191012Z 32014KT 04/M01 A3016 RMK A01 T00371006  RH  073%=      5-min Rain = 0
KBI1 191013Z 32014KT 04/M01 A3016 RMK A01 T00381005  RH  074%=      5-min Rain = 0
KBI1 191014Z 33012G18KT 04/M01 A3016 RMK A01 T00371005  RH  074%=      5-min Rain = 0
KBI1 191015Z 32015KT 04/M01 A3016 RMK A01 T00371005  RH  074%=      5-min Rain = 0
KBI1 191016Z 32014G20KT 04/M01 A3016 RMK A01 T00371005  RH  074%=      5-min Rain = 0
KBI1 191017Z 32016G22KT 04/M01 A3016 RMK A01 T00371005  RH  074%=      5-min Rain = 0
KBI1 191018Z 32015G21KT 04/M01 A3016 RMK A01 T00371005  RH  074%=      5-min Rain = 0
KBI1 191019Z 33011KT 04/M01 A3016 RMK A01 T00371005  RH  074%=      5-min Rain = 0
KBI1 191020Z 33014KT 04/M01 A3016 RMK A01 T00371005  RH  074%=      5-min Rain = 0
KBI1 191021Z 32015KT 04/M01 A3016 RMK A01 T00371005  RH  074%=      5-min Rain = 0
KBI1 191022Z 33012G17KT 04/M01 A3016 RMK A01 T00371005  RH  074%=      5-min Rain = 0
KBI1 191023Z 32016KT 04/M01 A3016 RMK A01 T00361005  RH  074%=      5-min Rain = 0
KBI1 191024Z 32012KT 04/M01 A3016 RMK A01 T00371005  RH  074%=      5-min Rain = 0
KBI1 191025Z 32013G20KT 04/M00 A3016 RMK A01 T00371004  RH  075%=      5-min Rain = 0
KBI1 191026Z 32015G20KT 04/M01 A3016 RMK A01 T00361005  RH  075%=      5-min Rain = 0
KBI1 191027Z 32014G19KT 04/M00 A3016 RMK A01 T00371004  RH  075%=      5-min Rain = 0
KBI1 191028Z 32014KT 04/M00 A3016 RMK A01 T00371004  RH  075%=      5-min Rain = 0
KBI1 191029Z 32012KT 04/M00 A3016 RMK A01 T00361004  RH  075%=      5-min Rain = 0
KBI1 191030Z 32014KT 04/M00 A3016 RMK A01 T00361004  RH  075%=      5-min Rain = 0
KBI1 191031Z 32012KT 04/M00 A3016 RMK A01 T00361004  RH  076%=      5-min Rain = 0
KBI1 191032Z 32013KT 04/M00 A3016 RMK A01 T00361003  RH  076%=      5-min Rain = 0
KBI1 191033Z 32013KT 04/M00 A3017 RMK A01 T00361003  RH  076%=      5-min Rain = 0
KBI1 191034Z 32012KT 04/M00 A3017 RMK A01 T00351003  RH  076%=      5-min Rain = 0
KBI1 191035Z 32014KT 04/M00 A3017 RMK A01 T00351003  RH  076%=      5-min Rain = 0
KBI1 191036Z 32012KT 04/M00 A3016 RMK A01 T00351003  RH  076%=      5-min Rain = 0
KBI1 191037Z 32013KT 04/M00 A3016 RMK A01 T00351003  RH  076%=      5-min Rain = 0
KBI1 191038Z 32013KT 04/M00 A3016 RMK A01 T00351003  RH  076%=      5-min Rain = 0
KBI1 191039Z 31015G21KT 04/M00 A3016 RMK A01 T00351003  RH  076%=      5-min Rain = 0
KBI1 191040Z 32014KT 04/M00 A3016 RMK A01 T00361003  RH  076%=      5-min Rain = 0
KBI1 191041Z 32017KT 04/M00 A3016 RMK A01 T00361004  RH  075%=      5-min Rain = 0
KBI1 191042Z 32019G26KT 04/M01 A3016 RMK A01 T00361005  RH  075%=      5-min Rain = 0
KBI1 191043Z 32017G25KT 04/M01 A3016 RMK A01 T00371006  RH  073%=      5-min Rain = 0
KBI1 191044Z 31018KT 04/M01 A3016 RMK A01 T00381007  RH  073%=      5-min Rain = 0
KBI1 191045Z 32020G28KT 04/M01 A3017 RMK A01 T00381007  RH  072%=      5-min Rain = 0
KBI1 191046Z 32023KT 04/M01 A3016 RMK A01 T00381009  RH  071%=      5-min Rain = 0
KBI1 191047Z 32021G29KT 04/M01 A3016 RMK A01 T00391012  RH  069%=      5-min Rain = 0
KBI1 191048Z 33018G24KT 04/M01 A3016 RMK A01 T00391014  RH  069%=      5-min Rain = 0
KBI1 191049Z 32019G24KT 04/M01 A3016 RMK A01 T00391014  RH  068%=      5-min Rain = 0
KBI1 191050Z 32020G26KT 04/M02 A3016 RMK A01 T00381015  RH  068%=      5-min Rain = 0
KBI1 191051Z 33019G26KT 04/M02 A3017 RMK A01 T00381016  RH  068%=      5-min Rain = 0
KBI1 191052Z 33021G26KT 04/M02 A3017 RMK A01 T00381017  RH  067%=      5-min Rain = 0
KBI1 191053Z 32017KT 04/M02 A3017 RMK A01 T00371017  RH  068%=      5-min Rain = 0
KBI1 191054Z 32019G24KT 04/M02 A3017 RMK A01 T00361018  RH  068%=      5-min Rain = 0
KBI1 191055Z 33020KT 04/M02 A3017 RMK A01 T00361019  RH  067%=      5-min Rain = 0
KBI1 191056Z 33022KT 04/M02 A3017 RMK A01 T00361020  RH  067%=      5-min Rain = 0
KBI1 191057Z 33019KT 04/M02 A3017 RMK A01 T00361021  RH  066%=      5-min Rain = 0
KBI1 191058Z 34017G23KT 04/M02 A3017 RMK A01 T00371020  RH  066%=      5-min Rain = 0
KBI1 191059Z 33018KT 04/M02 A3017 RMK A01 T00361020  RH  067%=      5-min Rain = 0
KBI1 191100Z 33018G23KT 04/M02 A3017 RMK A01 T00351021  RH  067%=      5-min Rain = 0
KBI1 191101Z 33018KT 04/M02 A3017 RMK A01 T00351021  RH  067%=      5-min Rain = 0
KBI1 191102Z 33018KT 04/M02 A3017 RMK A01 T00351021  RH  067%=      5-min Rain = 0
KBI1 191103Z 33020G25KT 04/M02 A3017 RMK A01 T00351021  RH  067%=      5-min Rain = 0
KBI1 191104Z 33019KT 03/M02 A3017 RMK A01 T00341022  RH  067%=      5-min Rain = 0
KBI1 191105Z 33016G22KT 03/M02 A3018 RMK A01 T00341022  RH  067%=      5-min Rain = 0
KBI1 191106Z 33016G22KT 03/M02 A3018 RMK A01 T00341022  RH  067%=      5-min Rain = 0
KBI1 191107Z 33017KT 03/M02 A3018 RMK A01 T00331022  RH  067%=      5-min Rain = 0
KBI1 191108Z 33019KT 03/M02 A3018 RMK A01 T00331022  RH  067%=      5-min Rain = 0
KBI1 191109Z 33015KT 03/M02 A3018 RMK A01 T00341022  RH  067%=      5-min Rain = 0
KBI1 191110Z 33016KT 03/M02 A3018 RMK A01 T00331022  RH  067%=      5-min Rain = 0
KBI1 191111Z 32018G24KT 03/M02 A3018 RMK A01 T00331022  RH  068%=      5-min Rain = 0
KBI1 191112Z 33014KT 03/M02 A3018 RMK A01 T00331022  RH  067%=      5-min Rain = 0
KBI1 191113Z 33012KT 03/M02 A3018 RMK A01 T00321022  RH  068%=      5-min Rain = 0
KBI1 191114Z 33016KT 03/M02 A3018 RMK A01 T00311021  RH  068%=      5-min Rain = 0
KBI1 191115Z 33013KT 03/M02 A3018 RMK A01 T00311021  RH  068%=      5-min Rain = 0
KBI1 191116Z 32015KT 03/M02 A3018 RMK A01 T00311021  RH  068%=      5-min Rain = 0
KBI1 191117Z 32016G21KT 03/M02 A3018 RMK A01 T00311021  RH  069%=      5-min Rain = 0
KBI1 191118Z 32015KT 03/M02 A3018 RMK A01 T00311021  RH  068%=      5-min Rain = 0
KBI1 191119Z 32016KT 03/M02 A3018 RMK A01 T00321021  RH  068%=      5-min Rain = 0
KBI1 191120Z 33014KT 03/M02 A3018 RMK A01 T00311021  RH  069%=      5-min Rain = 0
KBI1 191121Z 32014G19KT 03/M02 A3018 RMK A01 T00311021  RH  069%=      5-min Rain = 0
KBI1 191122Z 32016KT 03/M02 A3018 RMK A01 T00301021  RH  069%=      5-min Rain = 0
KBI1 191123Z 32012KT 03/M02 A3018 RMK A01 T00311020  RH  069%=      5-min Rain = 0
KBI1 191124Z 32012KT 03/M02 A3018 RMK A01 T00311020  RH  069%=      5-min Rain = 0
KBI1 191125Z 33013G18KT 03/M02 A3018 RMK A01 T00301020  RH  070%=      5-min Rain = 0
KBI1 191126Z 33013KT 03/M02 A3019 RMK A01 T00301019  RH  070%=      5-min Rain = 0
KBI1 191127Z 32013KT 03/M02 A3018 RMK A01 T00301019  RH  070%=      5-min Rain = 0
KBI1 191128Z 32015KT 03/M02 A3018 RMK A01 T00301019  RH  070%=      5-min Rain = 0
KBI1 191129Z 32012KT 03/M02 A3019 RMK A01 T00301019  RH  071%=      5-min Rain = 0
KBI1 191130Z 32013G18KT 03/M02 A3018 RMK A01 T00301018  RH  071%=      5-min Rain = 0
KBI1 191131Z 32019G24KT 03/M02 A3018 RMK A01 T00311018  RH  070%=      5-min Rain = 0
KBI1 191132Z 32019KT 03/M02 A3018 RMK A01 T00321018  RH  070%=      5-min Rain = 0
KBI1 191133Z 31018G23KT 03/M02 A3019 RMK A01 T00321018  RH  070%=      5-min Rain = 0
KBI1 191134Z 32015G21KT 03/M02 A3019 RMK A01 T00321018  RH  070%=      5-min Rain = 0
KBI1 191135Z 32018G24KT 03/M02 A3019 RMK A01 T00321018  RH  070%=      5-min Rain = 0
KBI1 191136Z 32018KT 03/M02 A3019 RMK A01 T00321019  RH  069%=      5-min Rain = 0
KBI1 191137Z 32015KT 03/M02 A3019 RMK A01 T00331019  RH  069%=      5-min Rain = 0
KBI1 191138Z 32016KT 03/M02 A3019 RMK A01 T00331019  RH  069%=      5-min Rain = 0
KBI1 191139Z 32013G20KT 03/M02 A3019 RMK A01 T00321019  RH  069%=      5-min Rain = 0
KBI1 191140Z 32018G23KT 03/M02 A3019 RMK A01 T00321019  RH  069%=      5-min Rain = 0
KBI1 191141Z 32014KT 03/M02 A3019 RMK A01 T00321019  RH  069%=      5-min Rain = 0
KBI1 191142Z 32014G20KT 03/M02 A3019 RMK A01 T00321019  RH  069%=      5-min Rain = 0
KBI1 191143Z 32016G22KT 03/M02 A3019 RMK A01 T00321019  RH  069%=      5-min Rain = 0
KBI1 191144Z 32016G21KT 03/M02 A3019 RMK A01 T00311019  RH  069%=      5-min Rain = 0
KBI1 191145Z 32016G21KT 03/M02 A302 RMK A01 T00311019  RH  069%=      5-min Rain = 0
KBI1 191146Z 32015KT 03/M02 A302 RMK A01 T00311020  RH  069%=      5-min Rain = 0
KBI1 191147Z 33014KT 03/M02 A302 RMK A01 T00321020  RH  069%=      5-min Rain = 0
KBI1 191148Z 32017G26KT 03/M02 A302 RMK A01 T00311020  RH  069%=      5-min Rain = 0
KBI1 191149Z 33015G23KT 03/M02 A302 RMK A01 T00321021  RH  068%=      5-min Rain = 0
KBI1 191150Z 33013KT 03/M02 A302 RMK A01 T00321021  RH  068%=      5-min Rain = 0
KBI1 191151Z 33018G23KT 03/M02 A302 RMK A01 T00311021  RH  068%=      5-min Rain = 0
KBI1 191152Z 33017KT 03/M02 A302 RMK A01 T00311023  RH  068%=      5-min Rain = 0
KBI1 191153Z 33016KT 03/M02 A302 RMK A01 T00321023  RH  067%=      5-min Rain = 0
KBI1 191154Z 33016G22KT 03/M02 A302 RMK A01 T00321023  RH  067%=      5-min Rain = 0
KBI1 191155Z 33017G24KT 03/M02 A302 RMK A01 T00321023  RH  067%=      5-min Rain = 0
KBI1 191156Z 33015G21KT 03/M02 A302 RMK A01 T00311024  RH  067%=      5-min Rain = 0
KBI1 191157Z 33016KT 03/M02 A302 RMK A01 T00321024  RH  067%=      5-min Rain = 0
KBI1 191158Z 33019KT 03/M02 A302 RMK A01 T00311024  RH  067%=      5-min Rain = 0
KBI1 191159Z 33018G23KT 03/M02 A3021 RMK A01 T00321024  RH  067%=      5-min Rain = 0
KBI1 191200Z 33016KT 03/M02 A3021 RMK A01 T00311024  RH  067%=      5-min Rain = 0
KBI1 191201Z 33016KT 03/M03 A3021 RMK A01 T00321025  RH  067%=      5-min Rain = 0
KBI1 191202Z 33018G23KT 03/M03 A3021 RMK A01 T00311025  RH  067%=      5-min Rain = 0
KBI1 191203Z 33016KT 03/M03 A3021 RMK A01 T00311025  RH  066%=      5-min Rain = 0
KBI1 191204Z 33016KT 03/M03 A3021 RMK A01 T00311025  RH  066%=      5-min Rain = 0
KBI1 191205Z 33017KT 03/M03 A3021 RMK A01 T00311025  RH  066%=      5-min Rain = 0
KBI1 191206Z 33016G21KT 03/M03 A3021 RMK A01 T00311026  RH  066%=      5-min Rain = 0
KBI1 191207Z 33016KT 03/M03 A3021 RMK A01 T00311025  RH  066%=      5-min Rain = 0
KBI1 191208Z 33016KT 03/M03 A3021 RMK A01 T00311025  RH  067%=      5-min Rain = 0
KBI1 191209Z 33014KT 03/M03 A3021 RMK A01 T00311025  RH  067%=      5-min Rain = 0
KBI1 191210Z 33014KT 03/M03 A3021 RMK A01 T00301026  RH  067%=      5-min Rain = 0
KBI1 191211Z 32014KT 03/M03 A3021 RMK A01 T00301026  RH  067%=      5-min Rain = 0
KBI1 191212Z 33018KT 03/M03 A3021 RMK A01 T00301026  RH  067%=      5-min Rain = 0
KBI1 191213Z 33017KT 03/M03 A3021 RMK A01 T00301026  RH  067%=      5-min Rain = 0
KBI1 191214Z 33016G22KT 03/M03 A3021 RMK A01 T00301026  RH  066%=      5-min Rain = 0
KBI1 191215Z 32018G23KT 03/M03 A3021 RMK A01 T00301026  RH  066%=      5-min Rain = 0
KBI1 191216Z 32017KT 03/M03 A3021 RMK A01 T00311027  RH  066%=      5-min Rain = 0
KBI1 191217Z 33017G22KT 03/M03 A3021 RMK A01 T00311026  RH  066%=      5-min Rain = 0
KBI1 191218Z 33016KT 03/M03 A3021 RMK A01 T00301027  RH  066%=      5-min Rain = 0
KBI1 191219Z 33017G22KT 03/M03 A3021 RMK A01 T00311026  RH  066%=      5-min Rain = 0
KBI1 191220Z 32015KT 03/M03 A3021 RMK A01 T00301027  RH  066%=      5-min Rain = 0
KBI1 191221Z 33016G21KT 03/M03 A3021 RMK A01 T00301027  RH  066%=      5-min Rain = 0
KBI1 191222Z 33015KT 03/M03 A3021 RMK A01 T00301027  RH  066%=      5-min Rain = 0
KBI1 191223Z 33017G23KT 03/M03 A3021 RMK A01 T00291027  RH  067%=      5-min Rain = 0
KBI1 191224Z 33016KT 03/M03 A3022 RMK A01 T00291027  RH  066%=      5-min Rain = 0
KBI1 191225Z 33018KT 03/M03 A3022 RMK A01 T00291027  RH  067%=      5-min Rain = 0
KBI1 191226Z 33017G23KT 03/M03 A3022 RMK A01 T00291027  RH  067%=      5-min Rain = 0
KBI1 191227Z 33016KT 03/M03 A3022 RMK A01 T00291027  RH  066%=      5-min Rain = 0
KBI1 191228Z 33018KT 03/M03 A3022 RMK A01 T00291028  RH  066%=      5-min Rain = 0
KBI1 191229Z 33018KT 03/M03 A3022 RMK A01 T00291028  RH  066%=      5-min Rain = 0
KBI1 191230Z 33016KT 03/M03 A3022 RMK A01 T00301027  RH  066%=      5-min Rain = 0
KBI1 191231Z 33015KT 03/M03 A3022 RMK A01 T00291027  RH  066%=      5-min Rain = 0
KBI1 191232Z 33016KT 03/M03 A3022 RMK A01 T00291027  RH  067%=      5-min Rain = 0
KBI1 191233Z 32014KT 03/M03 A3022 RMK A01 T00291027  RH  067%=      5-min Rain = 0
KBI1 191234Z 33015G20KT 03/M03 A3022 RMK A01 T00281027  RH  067%=      5-min Rain = 0
KBI1 191235Z 32015KT 03/M03 A3023 RMK A01 T00281027  RH  067%=      5-min Rain = 0
KBI1 191236Z 32013KT 03/M03 A3023 RMK A01 T00281027  RH  067%=      5-min Rain = 0
KBI1 191237Z 32016G21KT 03/M03 A3023 RMK A01 T00281027  RH  067%=      5-min Rain = 0
KBI1 191238Z 32017KT 03/M03 A3023 RMK A01 T00281027  RH  067%=      5-min Rain = 0
KBI1 191239Z 32015G20KT 03/M03 A3023 RMK A01 T00291028  RH  066%=      5-min Rain = 0
KBI1 191240Z 32015KT 03/M03 A3023 RMK A01 T00291028  RH  066%=      5-min Rain = 0
KBI1 191241Z 32016G23KT 03/M03 A3023 RMK A01 T00291028  RH  066%=      5-min Rain = 0
KBI1 191242Z 32014KT 03/M03 A3024 RMK A01 T00291028  RH  066%=      5-min Rain = 0
KBI1 191243Z 32014KT 03/M03 A3024 RMK A01 T00291027  RH  066%=      5-min Rain = 0
KBI1 191244Z 32015G20KT 03/M03 A3024 RMK A01 T00291027  RH  066%=      5-min Rain = 0
KBI1 191245Z 32016KT 03/M03 A3024 RMK A01 T00291028  RH  066%=      5-min Rain = 0
KBI1 191246Z 32017KT 03/M03 A3024 RMK A01 T00291028  RH  066%=      5-min Rain = 0
KBI1 191247Z 32014KT 03/M03 A3024 RMK A01 T00291028  RH  066%=      5-min Rain = 0
KBI1 191248Z 32011KT 03/M03 A3024 RMK A01 T00291027  RH  066%=      5-min Rain = 0
KBI1 191249Z 32013G18KT 03/M03 A3024 RMK A01 T00281028  RH  067%=      5-min Rain = 0
KBI1 191250Z 32013KT 03/M03 A3024 RMK A01 T00281028  RH  067%=      5-min Rain = 0
KBI1 191251Z 32013G18KT 03/M03 A3024 RMK A01 T00281028  RH  067%=      5-min Rain = 0
KBI1 191252Z 33015G21KT 03/M03 A3024 RMK A01 T00281028  RH  067%=      5-min Rain = 0
KBI1 191253Z 32014KT 03/M03 A3024 RMK A01 T00281028  RH  067%=      5-min Rain = 0
KBI1 191254Z 32013KT 03/M03 A3024 RMK A01 T00281028  RH  067%=      5-min Rain = 0
KBI1 191255Z 32015G22KT 03/M03 A3024 RMK A01 T00281028  RH  066%=      5-min Rain = 0
KBI1 191256Z 32016KT 03/M03 A3024 RMK A01 T00291029  RH  066%=      5-min Rain = 0
KBI1 191257Z 32014G19KT 03/M03 A3025 RMK A01 T00291028  RH  066%=      5-min Rain = 0
KBI1 191258Z 32014KT 03/M03 A3025 RMK A01 T00281028  RH  066%=      5-min Rain = 0
KBI1 191259Z 32014KT 03/M03 A3025 RMK A01 T00271028  RH  067%=      5-min Rain = 0
KBI1 191300Z 33012KT 03/M03 A3025 RMK A01 T00271028  RH  067%=      5-min Rain = 0
KBI1 191301Z 32014KT 03/M03 A3025 RMK A01 T00271028  RH  067%=      5-min Rain = 0
KBI1 191302Z 32014KT 03/M03 A3025 RMK A01 T00271028  RH  067%=      5-min Rain = 0
KBI1 191303Z 32012G17KT 03/M03 A3025 RMK A01 T00271028  RH  067%=      5-min Rain = 0
KBI1 191304Z 33014G20KT 03/M03 A3025 RMK A01 T00271029  RH  067%=      5-min Rain = 0
KBI1 191305Z 32014KT 03/M03 A3025 RMK A01 T00261028  RH  067%=      5-min Rain = 0
KBI1 191306Z 32011KT 03/M03 A3025 RMK A01 T00261028  RH  067%=      5-min Rain = 0
KBI1 191307Z 32014KT 03/M03 A3025 RMK A01 T00261028  RH  068%=      5-min Rain = 0
KBI1 191308Z 32012KT 03/M03 A3025 RMK A01 T00261028  RH  068%=      5-min Rain = 0
KBI1 191309Z 32012G17KT 03/M03 A3025 RMK A01 T00251028  RH  068%=      5-min Rain = 0
KBI1 191310Z 32012KT 03/M03 A3025 RMK A01 T00251028  RH  068%=      5-min Rain = 0
KBI1 191311Z 32011G16KT 03/M03 A3025 RMK A01 T00251028  RH  068%=      5-min Rain = 0
KBI1 191312Z 32016G21KT 03/M03 A3025 RMK A01 T00261028  RH  068%=      5-min Rain = 0
KBI1 191313Z 32012G17KT 03/M03 A3025 RMK A01 T00271028  RH  067%=      5-min Rain = 0
KBI1 191314Z 32013KT 03/M03 A3026 RMK A01 T00271028  RH  067%=      5-min Rain = 0
KBI1 191315Z 32013KT 03/M03 A3026 RMK A01 T00261028  RH  068%=      5-min Rain = 0
KBI1 191316Z 32013KT 03/M03 A3026 RMK A01 T00251028  RH  068%=      5-min Rain = 0
KBI1 191317Z 32012KT 03/M03 A3026 RMK A01 T00251028  RH  068%=      5-min Rain = 0
KBI1 191318Z 33011G17KT 03/M03 A3026 RMK A01 T00251028  RH  068%=      5-min Rain = 0
KBI1 191319Z 32015G20KT 03/M03 A3026 RMK A01 T00251028  RH  068%=      5-min Rain = 0
KBI1 191320Z 32015G20KT 03/M03 A3026 RMK A01 T00251028  RH  068%=      5-min Rain = 0
KBI1 191321Z 33017KT 03/M03 A3026 RMK A01 T00261028  RH  068%=      5-min Rain = 0
KBI1 191322Z 33018KT 03/M03 A3026 RMK A01 T00261029  RH  067%=      5-min Rain = 0
KBI1 191323Z 33018KT 03/M03 A3026 RMK A01 T00271029  RH  067%=      5-min Rain = 0
KBI1 191324Z 33016G21KT 03/M03 A3026 RMK A01 T00261029  RH  067%=      5-min Rain = 0
KBI1 191325Z 33018KT 03/M03 A3026 RMK A01 T00271029  RH  067%=      5-min Rain = 0
KBI1 191326Z 33019KT 03/M03 A3026 RMK A01 T00271029  RH  067%=      5-min Rain = 0
KBI1 191327Z 33019KT 03/M03 A3026 RMK A01 T00271029  RH  067%=      5-min Rain = 0
KBI1 191328Z 33019KT 03/M03 A3026 RMK A01 T00271029  RH  067%=      5-min Rain = 0
KBI1 191329Z 33016KT 03/M03 A3026 RMK A01 T00271029  RH  067%=      5-min Rain = 0
KBI1 191330Z 34017KT 03/M03 A3026 RMK A01 T00261029  RH  067%=      5-min Rain = 0
KBI1 191331Z 33016KT 03/M03 A3026 RMK A01 T00261029  RH  067%=      5-min Rain = 0
KBI1 191332Z 33016KT 03/M03 A3026 RMK A01 T00261028  RH  067%=      5-min Rain = 0
KBI1 191333Z 33017KT 03/M03 A3026 RMK A01 T00251029  RH  067%=      5-min Rain = 0
KBI1 191334Z 33016G21KT 03/M03 A3026 RMK A01 T00261029  RH  067%=      5-min Rain = 0
KBI1 191335Z 34014KT 03/M03 A3026 RMK A01 T00251029  RH  067%=      5-min Rain = 0
KBI1 191336Z 34015KT 03/M03 A3026 RMK A01 T00251028  RH  068%=      5-min Rain = 0
KBI1 191337Z 33015KT 03/M03 A3026 RMK A01 T00251028  RH  068%=      5-min Rain = 0
KBI1 191338Z 33017KT 03/M03 A3027 RMK A01 T00251028  RH  068%=      5-min Rain = 0
KBI1 191339Z 33017KT 03/M03 A3027 RMK A01 T00251029  RH  068%=      5-min Rain = 0
KBI1 191340Z 33015KT 03/M03 A3027 RMK A01 T00251029  RH  068%=      5-min Rain = 0
KBI1 191341Z 33015G20KT 03/M03 A3027 RMK A01 T00251028  RH  068%=      5-min Rain = 0
KBI1 191342Z 33017G22KT 03/M03 A3027 RMK A01 T00251029  RH  068%=      5-min Rain = 0
KBI1 191343Z 33017KT 03/M03 A3027 RMK A01 T00251029  RH  068%=      5-min Rain = 0
KBI1 191344Z 32016G21KT 03/M03 A3027 RMK A01 T00251029  RH  068%=      5-min Rain = 0
KBI1 191345Z 33016KT 03/M03 A3027 RMK A01 T00251028  RH  068%=      5-min Rain = 0
KBI1 191346Z 33016KT 03/M03 A3027 RMK A01 T00251029  RH  068%=      5-min Rain = 0
KBI1 191347Z 33014KT 03/M03 A3027 RMK A01 T00251029  RH  068%=      5-min Rain = 0
KBI1 191348Z 33015KT 03/M03 A3027 RMK A01 T00251029  RH  068%=      5-min Rain = 0
KBI1 191349Z 33014KT 02/M03 A3027 RMK A01 T00241028  RH  068%=      5-min Rain = 0
KBI1 191350Z 33015KT 02/M03 A3027 RMK A01 T00241028  RH  068%=      5-min Rain = 0
KBI1 191351Z 33014KT 02/M03 A3027 RMK A01 T00241029  RH  068%=      5-min Rain = 0
KBI1 191352Z 33015KT 02/M03 A3027 RMK A01 T00241029  RH  068%=      5-min Rain = 0
KBI1 191353Z 33014KT 02/M03 A3027 RMK A01 T00241029  RH  068%=      5-min Rain = 0
KBI1 191354Z 33015KT 02/M03 A3027 RMK A01 T00241029  RH  068%=      5-min Rain = 0
KBI1 191355Z 33015KT 02/M03 A3027 RMK A01 T00241028  RH  068%=      5-min Rain = 0
KBI1 191356Z 33013KT 02/M03 A3027 RMK A01 T00241029  RH  068%=      5-min Rain = 0
KBI1 191357Z 32014KT 02/M03 A3027 RMK A01 T00241029  RH  068%=      5-min Rain = 0
KBI1 191358Z 33012KT 02/M03 A3027 RMK A01 T00241029  RH  068%=      5-min Rain = 0
KBI1 191359Z 33013KT 02/M03 A3027 RMK A01 T00241029  RH  068%=      5-min Rain = 0
KBI1 191400Z 33015KT 03/M03 A3027 RMK A01 T00251028  RH  068%=      5-min Rain = 0
KBI1 191401Z 33014KT 03/M03 A3027 RMK A01 T00251029  RH  068%=      5-min Rain = 0
KBI1 191402Z 33014KT 03/M03 A3027 RMK A01 T00251029  RH  068%=      5-min Rain = 0
KBI1 191403Z 33016KT 03/M03 A3028 RMK A01 T00251029  RH  068%=      5-min Rain = 0
KBI1 191404Z 33015KT 03/M03 A3028 RMK A01 T00251029  RH  068%=      5-min Rain = 0
KBI1 191405Z 33014G19KT 03/M03 A3028 RMK A01 T00261029  RH  067%=      5-min Rain = 0
KBI1 191406Z 33013KT 03/M03 A3028 RMK A01 T00261028  RH  067%=      5-min Rain = 0
KBI1 191407Z 33015KT 03/M03 A3028 RMK A01 T00261028  RH  067%=      5-min Rain = 0
KBI1 191408Z 33015KT 03/M03 A3028 RMK A01 T00261029  RH  067%=      5-min Rain = 0
KBI1 191409Z 33014KT 03/M03 A3028 RMK A01 T00261029  RH  067%=      5-min Rain = 0
KBI1 191410Z 32013KT 03/M03 A3028 RMK A01 T00261028  RH  067%=      5-min Rain = 0
KBI1 191411Z 32013G18KT 03/M03 A3028 RMK A01 T00271028  RH  067%=      5-min Rain = 0
KBI1 191412Z 33015KT 03/M03 A3028 RMK A01 T00271028  RH  067%=      5-min Rain = 0
KBI1 191413Z 33014KT 03/M03 A3028 RMK A01 T00271029  RH  067%=      5-min Rain = 0
KBI1 191414Z 33015KT 03/M03 A3028 RMK A01 T00271028  RH  067%=      5-min Rain = 0
KBI1 191415Z 33015KT 03/M03 A3029 RMK A01 T00271028  RH  067%=      5-min Rain = 0
KBI1 191416Z 33013KT 03/M03 A3029 RMK A01 T00281028  RH  067%=      5-min Rain = 0
KBI1 191417Z 33014KT 03/M03 A3029 RMK A01 T00281028  RH  067%=      5-min Rain = 0
KBI1 191418Z 32014KT 03/M03 A3029 RMK A01 T00281028  RH  067%=      5-min Rain = 0
KBI1 191419Z 32016KT 03/M03 A3029 RMK A01 T00281028  RH  067%=      5-min Rain = 0
KBI1 191420Z 33014G19KT 03/M03 A3029 RMK A01 T00291028  RH  066%=      5-min Rain = 0
KBI1 191421Z 33013G18KT 03/M03 A3029 RMK A01 T00291028  RH  066%=      5-min Rain = 0
KBI1 191422Z 33014G19KT 03/M03 A3029 RMK A01 T00291027  RH  066%=      5-min Rain = 0
KBI1 191423Z 33016G21KT 03/M03 A3029 RMK A01 T00301028  RH  066%=      5-min Rain = 0
KBI1 191424Z 32014KT 03/M03 A3029 RMK A01 T00301028  RH  066%=      5-min Rain = 0
KBI1 191425Z 32015KT 03/M03 A3029 RMK A01 T00301028  RH  066%=      5-min Rain = 0
KBI1 191426Z 32014KT 03/M03 A3029 RMK A01 T00311028  RH  066%=      5-min Rain = 0
KBI1 191427Z 33014G19KT 03/M03 A3029 RMK A01 T00311028  RH  065%=      5-min Rain = 0
KBI1 191428Z 33013KT 03/M03 A3029 RMK A01 T00311028  RH  065%=      5-min Rain = 0
KBI1 191429Z 33014KT 03/M03 A303 RMK A01 T00311027  RH  066%=      5-min Rain = 0
KBI1 191430Z 33015KT 03/M03 A303 RMK A01 T00311027  RH  066%=      5-min Rain = 0
KBI1 191431Z 33016KT 03/M03 A303 RMK A01 T00321027  RH  065%=      5-min Rain = 0
KBI1 191432Z 33017KT 03/M03 A3029 RMK A01 T00321027  RH  065%=      5-min Rain = 0
KBI1 191433Z 33016G23KT 03/M03 A303 RMK A01 T00321027  RH  065%=      5-min Rain = 0
KBI1 191434Z 33016KT 03/M03 A303 RMK A01 T00321028  RH  065%=      5-min Rain = 0
KBI1 191435Z 33013KT 03/M03 A303 RMK A01 T00331027  RH  065%=      5-min Rain = 0
KBI1 191436Z 32015KT 03/M03 A303 RMK A01 T00331027  RH  065%=      5-min Rain = 0
KBI1 191437Z 33017G22KT 03/M03 A303 RMK A01 T00331027  RH  064%=      5-min Rain = 0
KBI1 191438Z 33015KT 03/M03 A303 RMK A01 T00341027  RH  065%=      5-min Rain = 0
KBI1 191439Z 33016G22KT 03/M03 A303 RMK A01 T00341027  RH  065%=      5-min Rain = 0
KBI1 191440Z 33014G19KT 03/M03 A303 RMK A01 T00341027  RH  064%=      5-min Rain = 0
KBI1 191441Z 33017KT 03/M03 A303 RMK A01 T00341027  RH  064%=      5-min Rain = 0
KBI1 191442Z 33018KT 03/M03 A303 RMK A01 T00341027  RH  064%=      5-min Rain = 0
KBI1 191443Z 33014KT 04/M03 A303 RMK A01 T00351027  RH  064%=      5-min Rain = 0
KBI1 191444Z 33014G21KT 04/M03 A303 RMK A01 T00351026  RH  064%=      5-min Rain = 0
KBI1 191445Z 33018KT 04/M03 A303 RMK A01 T00361026  RH  064%=      5-min Rain = 0
KBI1 191446Z 33016KT 04/M03 A303 RMK A01 T00361027  RH  064%=      5-min Rain = 0
KBI1 191447Z 33017KT 04/M03 A303 RMK A01 T00361027  RH  064%=      5-min Rain = 0
KBI1 191448Z 33018G23KT 04/M03 A303 RMK A01 T00361027  RH  063%=      5-min Rain = 0
KBI1 191449Z 33016G21KT 04/M03 A303 RMK A01 T00371027  RH  063%=      5-min Rain = 0
KBI1 191450Z 33015G20KT 04/M03 A303 RMK A01 T00371026  RH  063%=      5-min Rain = 0
KBI1 191451Z 33017KT 04/M03 A303 RMK A01 T00381026  RH  063%=      5-min Rain = 0
KBI1 191452Z 33018KT 04/M03 A3031 RMK A01 T00381026  RH  063%=      5-min Rain = 0
KBI1 191453Z 33015G20KT 04/M03 A3031 RMK A01 T00381026  RH  063%=      5-min Rain = 0
KBI1 191454Z 33015G20KT 04/M03 A3031 RMK A01 T00381026  RH  063%=      5-min Rain = 0
KBI1 191455Z 33016KT 04/M03 A3031 RMK A01 T00391025  RH  063%=      5-min Rain = 0
KBI1 191456Z 33016KT 04/M03 A3031 RMK A01 T00391026  RH  063%=      5-min Rain = 0
KBI1 191457Z 33017KT 04/M03 A3031 RMK A01 T00401026  RH  062%=      5-min Rain = 0
KBI1 191458Z 33015G21KT 04/M03 A3031 RMK A01 T00401026  RH  062%=      5-min Rain = 0
KBI1 191459Z 33018KT 04/M03 A3031 RMK A01 T00401025  RH  062%=      5-min Rain = 0
KBI1 191500Z 33015KT 04/M03 A3031 RMK A01 T00411026  RH  062%=      5-min Rain = 0
KBI1 191501Z 33013G18KT 04/M03 A3031 RMK A01 T00411025  RH  062%=      5-min Rain = 0
KBI1 191502Z 33017KT 04/M02 A3031 RMK A01 T00421024  RH  062%=      5-min Rain = 0
KBI1 191503Z 33018KT 04/M03 A3031 RMK A01 T00421026  RH  061%=      5-min Rain = 0
KBI1 191504Z 33019KT 04/M03 A3031 RMK A01 T00421026  RH  061%=      5-min Rain = 0
KBI1 191505Z 33018KT 04/M03 A3031 RMK A01 T00421027  RH  061%=      5-min Rain = 0
KBI1 191506Z 33015KT 04/M03 A3031 RMK A01 T00421026  RH  061%=      5-min Rain = 0
KBI1 191507Z 34015KT 04/M03 A3031 RMK A01 T00431025  RH  061%=      5-min Rain = 0
KBI1 191508Z 33014KT 04/M02 A3031 RMK A01 T00441024  RH  061%=      5-min Rain = 0
KBI1 191509Z 33014KT 05/M02 A3031 RMK A01 T00451023  RH  061%=      5-min Rain = 0
KBI1 191510Z 33015KT 05/M02 A3031 RMK A01 T00451024  RH  061%=      5-min Rain = 0
KBI1 191511Z 33015KT 05/M02 A3031 RMK A01 T00451024  RH  061%=      5-min Rain = 0
KBI1 191512Z 34016KT 05/M02 A3031 RMK A01 T00451024  RH  061%=      5-min Rain = 0
KBI1 191513Z 33014KT 05/M02 A3031 RMK A01 T00451024  RH  061%=      5-min Rain = 0
KBI1 191514Z 34014KT 05/M02 A3031 RMK A01 T00461023  RH  061%=      5-min Rain = 0
KBI1 191515Z 33017KT 05/M02 A3031 RMK A01 T00471023  RH  061%=      5-min Rain = 0
KBI1 191516Z 33015KT 05/M03 A3031 RMK A01 T00471025  RH  060%=      5-min Rain = 0
KBI1 191517Z 33017KT 05/M02 A3031 RMK A01 T00471024  RH  060%=      5-min Rain = 0
KBI1 191518Z 33019KT 05/M03 A3031 RMK A01 T00471025  RH  059%=      5-min Rain = 0
KBI1 191519Z 34019KT 05/M03 A3031 RMK A01 T00471025  RH  059%=      5-min Rain = 0
KBI1 191520Z 34014KT 05/M02 A3031 RMK A01 T00481024  RH  059%=      5-min Rain = 0
KBI1 191521Z 33013KT 05/M02 A3031 RMK A01 T00491023  RH  059%=      5-min Rain = 0
KBI1 191522Z 34016G23KT 05/M02 A3032 RMK A01 T00511022  RH  059%=      5-min Rain = 0
KBI1 191523Z 33019KT 05/M02 A3032 RMK A01 T00511024  RH  059%=      5-min Rain = 0
KBI1 191524Z 32017G23KT 05/M03 A3032 RMK A01 T00511025  RH  058%=      5-min Rain = 0
KBI1 191525Z 33017KT 05/M03 A3032 RMK A01 T00511025  RH  058%=      5-min Rain = 0
KBI1 191526Z 34016KT 05/M02 A3032 RMK A01 T00511023  RH  059%=      5-min Rain = 0
KBI1 191527Z 33019KT 05/M02 A3032 RMK A01 T00521024  RH  058%=      5-min Rain = 0
KBI1 191528Z 33016KT 05/M03 A3032 RMK A01 T00511025  RH  058%=      5-min Rain = 0
KBI1 191529Z 33018G24KT 05/M03 A3032 RMK A01 T00521025  RH  058%=      5-min Rain = 0
KBI1 191530Z 34017G22KT 05/M02 A3032 RMK A01 T00521024  RH  058%=      5-min Rain = 0
KBI1 191531Z 34019KT 05/M02 A3032 RMK A01 T00531024  RH  057%=      5-min Rain = 0
KBI1 191532Z 34017G22KT 05/M02 A3032 RMK A01 T00541024  RH  057%=      5-min Rain = 0
KBI1 191533Z 34020KT 05/M02 A3032 RMK A01 T00541023  RH  057%=      5-min Rain = 0
KBI1 191534Z 33020KT 05/M02 A3032 RMK A01 T00541024  RH  057%=      5-min Rain = 0
KBI1 191535Z 34015KT 05/M02 A3032 RMK A01 T00541023  RH  058%=      5-min Rain = 0
KBI1 191536Z 34015KT 06/M02 A3032 RMK A01 T00551021  RH  058%=      5-min Rain = 0
KBI1 191537Z 34014G19KT 06/M02 A3032 RMK A01 T00571020  RH  058%=      5-min Rain = 0
KBI1 191538Z 33017KT 06/M02 A3032 RMK A01 T00581020  RH  057%=      5-min Rain = 0
KBI1 191539Z 34017KT 06/M02 A3032 RMK A01 T00581022  RH  057%=      5-min Rain = 0
KBI1 191540Z 34016KT 06/M02 A3032 RMK A01 T00571021  RH  057%=      5-min Rain = 0
KBI1 191541Z 34016KT 06/M02 A3032 RMK A01 T00591020  RH  057%=      5-min Rain = 0
KBI1 191542Z 34014KT 06/M02 A3032 RMK A01 T00591021  RH  056%=      5-min Rain = 0
KBI1 191543Z 34019KT 06/M02 A3032 RMK A01 T00601022  RH  056%=      5-min Rain = 0
KBI1 191544Z 34020KT 06/M02 A3032 RMK A01 T00601023  RH  055%=      5-min Rain = 0
KBI1 191545Z 34018KT 06/M02 A3032 RMK A01 T00601023  RH  056%=      5-min Rain = 0
KBI1 191546Z 34020KT 06/M02 A3032 RMK A01 T00601022  RH  056%=      5-min Rain = 0
KBI1 191547Z 34019G25KT 06/M02 A3032 RMK A01 T00601023  RH  056%=      5-min Rain = 0
KBI1 191548Z 34018KT 06/M02 A3032 RMK A01 T00601022  RH  056%=      5-min Rain = 0
KBI1 191549Z 34018KT 06/M02 A3032 RMK A01 T00611022  RH  056%=      5-min Rain = 0
KBI1 191550Z 34016KT 06/M02 A3033 RMK A01 T00611021  RH  056%=      5-min Rain = 0
KBI1 191551Z 34017G23KT 06/M02 A3033 RMK A01 T00621020  RH  056%=      5-min Rain = 0
KBI1 191552Z 35018KT 06/M02 A3033 RMK A01 T00631021  RH  055%=      5-min Rain = 0
KBI1 191553Z 34017G22KT 06/M02 A3033 RMK A01 T00631021  RH  055%=      5-min Rain = 0
KBI1 191554Z 34018KT 06/M02 A3033 RMK A01 T00631024  RH  054%=      5-min Rain = 0
KBI1 191555Z 34015G20KT 06/M02 A3033 RMK A01 T00621024  RH  054%=      5-min Rain = 0
KBI1 191556Z 34021G27KT 06/M02 A3033 RMK A01 T00641022  RH  054%=      5-min Rain = 0
KBI1 191557Z 34020G25KT 07/M02 A3033 RMK A01 T00651024  RH  053%=      5-min Rain = 0
KBI1 191558Z 35017G23KT 06/M02 A3033 RMK A01 T00641023  RH  054%=      5-min Rain = 0
KBI1 191559Z 34018KT 07/M02 A3033 RMK A01 T00651024  RH  053%=      5-min Rain = 0
KBI1 191600Z 34020G26KT 07/M02 A3033 RMK A01 T00651024  RH  053%=      5-min Rain = 0
KBI1 191601Z 34022KT 07/M03 A3033 RMK A01 T00651025  RH  053%=      5-min Rain = 0
KBI1 191602Z 34018KT 07/M03 A3033 RMK A01 T00661025  RH  052%=      5-min Rain = 0
KBI1 191603Z 34015KT 07/M03 A3033 RMK A01 T00661025  RH  052%=      5-min Rain = 0
KBI1 191604Z 34017G22KT 07/M02 A3033 RMK A01 T00671023  RH  052%=      5-min Rain = 0
KBI1 191605Z 34019KT 07/M03 A3033 RMK A01 T00681025  RH  051%=      5-min Rain = 0
KBI1 191606Z 34019KT 07/M03 A3033 RMK A01 T00681026  RH  051%=      5-min Rain = 0
KBI1 191607Z 34021KT 07/M03 A3033 RMK A01 T00691026  RH  051%=      5-min Rain = 0
KBI1 191608Z 35016KT 07/M03 A3033 RMK A01 T00671025  RH  052%=      5-min Rain = 0
KBI1 191609Z 35018KT 07/M02 A3033 RMK A01 T00681024  RH  052%=      5-min Rain = 0
KBI1 191610Z 34020G28KT 07/M02 A3033 RMK A01 T00681024  RH  052%=      5-min Rain = 0
KBI1 191611Z 34023KT 07/M03 A3033 RMK A01 T00681028  RH  050%=      5-min Rain = 0
KBI1 191612Z 34023G29KT 07/M03 A3033 RMK A01 T00681032  RH  049%=      5-min Rain = 0
KBI1 191613Z 34019G24KT 07/M03 A3033 RMK A01 T00671030  RH  050%=      5-min Rain = 0
KBI1 191614Z 33018G26KT 07/M03 A3033 RMK A01 T00691027  RH  051%=      5-min Rain = 0
KBI1 191615Z 34022KT 07/M03 A3033 RMK A01 T00701028  RH  050%=      5-min Rain = 0
KBI1 191616Z 34019KT 07/M03 A3033 RMK A01 T00701028  RH  049%=      5-min Rain = 0
KBI1 191617Z 34017G22KT 07/M03 A3033 RMK A01 T00711029  RH  049%=      5-min Rain = 0
KBI1 191618Z 35015G20KT 07/M03 A3033 RMK A01 T00731027  RH  049%=      5-min Rain = 0
KBI1 191619Z 35019KT 07/M03 A3033 RMK A01 T00741028  RH  048%=      5-min Rain = 0
KBI1 191620Z 34019G24KT 07/M03 A3033 RMK A01 T00731029  RH  048%=      5-min Rain = 0
KBI1 191621Z 34023KT 07/M03 A3033 RMK A01 T00731031  RH  048%=      5-min Rain = 0
KBI1 191622Z 33019KT 07/M03 A3033 RMK A01 T00731031  RH  048%=      5-min Rain = 0
KBI1 191623Z 33019G24KT 07/M03 A3033 RMK A01 T00731030  RH  048%=      5-min Rain = 0
KBI1 191624Z 34019KT 07/M03 A3033 RMK A01 T00721031  RH  048%=      5-min Rain = 0
KBI1 191625Z 34018KT 07/M03 A3033 RMK A01 T00731028  RH  048%=      5-min Rain = 0
KBI1 191626Z 34019KT 07/M03 A3034 RMK A01 T00741026  RH  049%=      5-min Rain = 0
KBI1 191627Z 34021G27KT 07/M03 A3034 RMK A01 T00741027  RH  049%=      5-min Rain = 0
KBI1 191628Z 34020G25KT 07/M03 A3034 RMK A01 T00741028  RH  048%=      5-min Rain = 0
KBI1 191629Z 34018KT 07/M03 A3034 RMK A01 T00731027  RH  049%=      5-min Rain = 0
KBI1 191630Z 34014G19KT 08/M02 A3034 RMK A01 T00751023  RH  050%=      5-min Rain = 0
KBI1 191631Z 34019G25KT 08/M02 A3034 RMK A01 T00781023  RH  049%=      5-min Rain = 0
KBI1 191632Z 33021KT 08/M03 A3034 RMK A01 T00761029  RH  047%=      5-min Rain = 0
KBI1 191633Z 34020KT 07/M03 A3034 RMK A01 T00731030  RH  048%=      5-min Rain = 0
KBI1 191634Z 34015G20KT 07/M03 A3034 RMK A01 T00731026  RH  050%=      5-min Rain = 0
KBI1 191635Z 33018KT 08/M02 A3034 RMK A01 T00751023  RH  050%=      5-min Rain = 0
KBI1 191636Z 33018KT 08/M02 A3034 RMK A01 T00761024  RH  049%=      5-min Rain = 0
KBI1 191637Z 34019G26KT 08/M02 A3034 RMK A01 T00761024  RH  049%=      5-min Rain = 0
KBI1 191638Z 34018KT 08/M03 A3034 RMK A01 T00761026  RH  048%=      5-min Rain = 0
KBI1 191639Z 33021G26KT 08/M03 A3034 RMK A01 T00761026  RH  048%=      5-min Rain = 0
KBI1 191640Z 33023KT 08/M03 A3034 RMK A01 T00761028  RH  048%=      5-min Rain = 0
KBI1 191641Z 33019KT 08/M03 A3034 RMK A01 T00751028  RH  048%=      5-min Rain = 0
KBI1 191642Z 33021KT 08/M03 A3034 RMK A01 T00751027  RH  048%=      5-min Rain = 0
KBI1 191643Z 34021KT 07/M03 A3034 RMK A01 T00741028  RH  048%=      5-min Rain = 0
KBI1 191644Z 34021KT 07/M03 A3034 RMK A01 T00741026  RH  049%=      5-min Rain = 0
KBI1 191645Z 33020KT 08/M03 A3034 RMK A01 T00751027  RH  049%=      5-min Rain = 0
KBI1 191646Z 33020KT 08/M03 A3034 RMK A01 T00761026  RH  048%=      5-min Rain = 0
KBI1 191647Z 34023KT 08/M03 A3034 RMK A01 T00781026  RH  048%=      5-min Rain = 0
KBI1 191648Z 34022KT 08/M03 A3034 RMK A01 T00771028  RH  047%=      5-min Rain = 0
KBI1 191649Z 34020KT 08/M03 A3034 RMK A01 T00771027  RH  048%=      5-min Rain = 0
KBI1 191650Z 34018KT 08/M03 A3034 RMK A01 T00781026  RH  048%=      5-min Rain = 0
KBI1 191651Z 33020KT 08/M03 A3034 RMK A01 T00791026  RH  047%=      5-min Rain = 0
KBI1 191652Z 33020KT 08/M03 A3034 RMK A01 T00781026  RH  048%=      5-min Rain = 0
KBI1 191653Z 33019G24KT 08/M03 A3034 RMK A01 T00791025  RH  048%=      5-min Rain = 0
KBI1 191654Z 34020G26KT 08/M03 A3034 RMK A01 T00801028  RH  046%=      5-min Rain = 0
KBI1 191655Z 33018KT 08/M03 A3034 RMK A01 T00791027  RH  047%=      5-min Rain = 0
KBI1 191656Z 33021G27KT 08/M03 A3034 RMK A01 T00801027  RH  046%=      5-min Rain = 0
KBI1 191657Z 33020G25KT 08/M03 A3034 RMK A01 T00811028  RH  046%=      5-min Rain = 0
KBI1 191658Z 33018KT 08/M03 A3034 RMK A01 T00801027  RH  047%=      5-min Rain = 0
KBI1 191659Z 33015KT 08/M03 A3034 RMK A01 T00811026  RH  047%=      5-min Rain = 0
KBI1 191700Z 34016G22KT 08/M02 A3034 RMK A01 T00811024  RH  047%=      5-min Rain = 0
KBI1 191701Z 34019KT 08/M02 A3034 RMK A01 T00821024  RH  047%=      5-min Rain = 0
KBI1 191702Z 33018KT 08/M02 A3034 RMK A01 T00821024  RH  047%=      5-min Rain = 0
KBI1 191703Z 33019KT 08/M02 A3034 RMK A01 T00841024  RH  047%=      5-min Rain = 0
KBI1 191704Z 33020KT 08/M03 A3034 RMK A01 T00831027  RH  046%=      5-min Rain = 0
KBI1 191705Z 34020KT 08/M03 A3034 RMK A01 T00831028  RH  045%=      5-min Rain = 0
KBI1 191706Z 34018G23KT 08/M03 A3034 RMK A01 T00841026  RH  046%=      5-min Rain = 0
KBI1 191707Z 35020G25KT 09/M03 A3035 RMK A01 T00851026  RH  045%=      5-min Rain = 0
KBI1 191708Z 34020G25KT 08/M03 A3034 RMK A01 T00831029  RH  045%=      5-min Rain = 0
KBI1 191709Z 34019KT 08/M03 A3034 RMK A01 T00811028  RH  046%=      5-min Rain = 0
KBI1 191710Z 34017G22KT 08/M03 A3034 RMK A01 T00821026  RH  046%=      5-min Rain = 0
KBI1 191711Z 33016KT 08/M03 A3035 RMK A01 T00841025  RH  046%=      5-min Rain = 0
KBI1 191712Z 34017G22KT 09/M02 A3034 RMK A01 T00871020  RH  047%=      5-min Rain = 0
KBI1 191713Z 33018KT 09/M02 A3034 RMK A01 T00881022  RH  046%=      5-min Rain = 0
KBI1 191714Z 33018KT 09/M02 A3034 RMK A01 T00871022  RH  046%=      5-min Rain = 0
KBI1 191715Z 34015G20KT 09/M02 A3035 RMK A01 T00871023  RH  046%=      5-min Rain = 0
KBI1 191716Z 34016KT 09/M02 A3035 RMK A01 T00881022  RH  046%=      5-min Rain = 0
KBI1 191717Z 34021KT 09/M02 A3035 RMK A01 T00891022  RH  045%=      5-min Rain = 0
KBI1 191718Z 33020KT 09/M02 A3034 RMK A01 T00891024  RH  045%=      5-min Rain = 0
KBI1 191719Z 33020G25KT 09/M03 A3034 RMK A01 T00881027  RH  044%=      5-min Rain = 0
KBI1 191720Z 33020KT 09/M03 A3035 RMK A01 T00871028  RH  045%=      5-min Rain = 0
KBI1 191721Z 34020KT 09/M03 A3035 RMK A01 T00861026  RH  045%=      5-min Rain = 0
KBI1 191722Z 34019KT 09/M03 A3035 RMK A01 T00881027  RH  044%=      5-min Rain = 0
KBI1 191723Z 34020KT 09/M03 A3035 RMK A01 T00881028  RH  044%=      5-min Rain = 0
KBI1 191724Z 33021KT 09/M03 A3034 RMK A01 T00881028  RH  044%=      5-min Rain = 0
KBI1 191725Z 35018KT 09/M03 A3035 RMK A01 T00871028  RH  044%=      5-min Rain = 0
KBI1 191726Z 34018KT 09/M03 A3035 RMK A01 T00861026  RH  045%=      5-min Rain = 0
KBI1 191727Z 34017KT 09/M03 A3035 RMK A01 T00871026  RH  045%=      5-min Rain = 0
KBI1 191728Z 34019G24KT 09/M03 A3034 RMK A01 T00871025  RH  045%=      5-min Rain = 0
KBI1 191729Z 33021KT 09/M03 A3034 RMK A01 T00881025  RH  045%=      5-min Rain = 0
KBI1 191730Z 33020KT 09/M03 A3035 RMK A01 T00901025  RH  044%=      5-min Rain = 0
KBI1 191731Z 33020KT 09/M03 A3034 RMK A01 T00911029  RH  043%=      5-min Rain = 0
KBI1 191732Z 34020KT 09/M03 A3034 RMK A01 T00891029  RH  043%=      5-min Rain = 0
KBI1 191733Z 34018KT 09/M03 A3035 RMK A01 T00891027  RH  044%=      5-min Rain = 0
KBI1 191734Z 34018KT 09/M03 A3034 RMK A01 T00891027  RH  044%=      5-min Rain = 0
KBI1 191735Z 34020G26KT 09/M03 A3034 RMK A01 T00891026  RH  044%=      5-min Rain = 0
KBI1 191736Z 34019G24KT 09/M03 A3034 RMK A01 T00901026  RH  044%=      5-min Rain = 0
KBI1 191737Z 33021G28KT 09/M03 A3034 RMK A01 T00911027  RH  043%=      5-min Rain = 0
KBI1 191738Z 34021G26KT 09/M03 A3034 RMK A01 T00921029  RH  043%=      5-min Rain = 0
KBI1 191739Z 34019G24KT 09/M03 A3034 RMK A01 T00911028  RH  043%=      5-min Rain = 0
KBI1 191740Z 34017G22KT 09/M03 A3034 RMK A01 T00911026  RH  044%=      5-min Rain = 0
KBI1 191741Z 34017G26KT 09/M02 A3034 RMK A01 T00931023  RH  044%=      5-min Rain = 0
KBI1 191742Z 34017G24KT 09/M03 A3034 RMK A01 T00941026  RH  043%=      5-min Rain = 0
KBI1 191743Z 33018G23KT 09/M03 A3034 RMK A01 T00941025  RH  043%=      5-min Rain = 0
KBI1 191744Z 33019KT 09/M03 A3034 RMK A01 T00941026  RH  043%=      5-min Rain = 0
KBI1 191745Z 33019G24KT 09/M03 A3034 RMK A01 T00941026  RH  043%=      5-min Rain = 0
KBI1 191746Z 34017KT 09/M03 A3034 RMK A01 T00941026  RH  043%=      5-min Rain = 0
KBI1 191747Z 34017G22KT 10/M02 A3034 RMK A01 T00961023  RH  043%=      5-min Rain = 0
KBI1 191748Z 34018KT 10/M03 A3034 RMK A01 T00951029  RH  042%=      5-min Rain = 0
KBI1 191749Z 34020G26KT 09/M03 A3034 RMK A01 T00941027  RH  043%=      5-min Rain = 0
KBI1 191750Z 34020KT 10/M03 A3034 RMK A01 T00951028  RH  042%=      5-min Rain = 0
KBI1 191751Z 33020G25KT 09/M03 A3034 RMK A01 T00931028  RH  042%=      5-min Rain = 0
KBI1 191752Z 33020G25KT 09/M03 A3034 RMK A01 T00931029  RH  042%=      5-min Rain = 0
KBI1 191753Z 34023KT 09/M03 A3034 RMK A01 T00931027  RH  043%=      5-min Rain = 0
KBI1 191754Z 34021G26KT 09/M03 A3034 RMK A01 T00931029  RH  042%=      5-min Rain = 0
KBI1 191755Z 34018KT 09/M03 A3034 RMK A01 T00931029  RH  042%=      5-min Rain = 0
KBI1 191756Z 34018G23KT 10/M03 A3034 RMK A01 T00951025  RH  043%=      5-min Rain = 0
KBI1 191757Z 34020G25KT 10/M03 A3034 RMK A01 T00951027  RH  042%=      5-min Rain = 0
KBI1 191758Z 34020KT 09/M03 A3033 RMK A01 T00941028  RH  042%=      5-min Rain = 0
KBI1 191759Z 34016KT 09/M03 A3033 RMK A01 T00941026  RH  043%=      5-min Rain = 0
KBI1 191800Z 34020KT 10/M02 A3034 RMK A01 T00981023  RH  043%=      5-min Rain = 0
KBI1 191801Z 34018G23KT 10/M03 A3033 RMK A01 T00981025  RH  042%=      5-min Rain = 0
KBI1 191802Z 34016KT 10/M03 A3033 RMK A01 T00961025  RH  042%=      5-min Rain = 0
KBI1 191803Z 34019G25KT 10/M03 A3033 RMK A01 T00971025  RH  042%=      5-min Rain = 0
KBI1 191804Z 35020G25KT 10/M03 A3033 RMK A01 T00981028  RH  041%=      5-min Rain = 0
KBI1 191805Z 34017KT 10/M03 A3033 RMK A01 T00951031  RH  041%=      5-min Rain = 0
KBI1 191806Z 35017KT 10/M03 A3033 RMK A01 T00951027  RH  042%=      5-min Rain = 0
KBI1 191807Z 34018KT 10/M03 A3033 RMK A01 T00971025  RH  042%=      5-min Rain = 0
KBI1 191808Z 34018KT 10/M03 A3033 RMK A01 T00981026  RH  042%=      5-min Rain = 0
KBI1 191809Z 35022KT 10/M03 A3033 RMK A01 T00971027  RH  042%=      5-min Rain = 0
KBI1 191810Z 34020KT 10/M03 A3033 RMK A01 T00951028  RH  042%=      5-min Rain = 0
KBI1 191811Z 35020KT 10/M03 A3033 RMK A01 T00951026  RH  043%=      5-min Rain = 0
KBI1 191812Z 35018KT 10/M03 A3033 RMK A01 T00961026  RH  042%=      5-min Rain = 0
KBI1 191813Z 34017G24KT 10/M02 A3033 RMK A01 T00961024  RH  043%=      5-min Rain = 0
KBI1 191814Z 33020KT 10/M02 A3033 RMK A01 T00981024  RH  042%=      5-min Rain = 0
KBI1 191815Z 34021KT 10/M03 A3033 RMK A01 T01001025  RH  041%=      5-min Rain = 0
KBI1 191816Z 34017G23KT 10/M03 A3033 RMK A01 T01011026  RH  041%=      5-min Rain = 0
KBI1 191817Z 34019KT 10/M03 A3033 RMK A01 T01021027  RH  040%=      5-min Rain = 0
KBI1 191818Z 35017KT 10/M03 A3033 RMK A01 T01021025  RH  041%=      5-min Rain = 0
KBI1 191819Z 35018KT 10/M03 A3033 RMK A01 T01031027  RH  040%=      5-min Rain = 0
KBI1 191820Z 36017KT 10/M03 A3033 RMK A01 T01031027  RH  040%=      5-min Rain = 0
KBI1 191821Z 34015KT 10/M02 A3033 RMK A01 T01041024  RH  041%=      5-min Rain = 0
KBI1 191822Z 34015KT 11/M02 A3033 RMK A01 T01061021  RH  041%=      5-min Rain = 0
KBI1 191823Z 34016KT 11/M02 A3032 RMK A01 T01061019  RH  042%=      5-min Rain = 0
KBI1 191824Z 34017G23KT 11/M02 A3032 RMK A01 T01091017  RH  041%=      5-min Rain = 0
KBI1 191825Z 33021KT 11/M02 A3032 RMK A01 T01071023  RH  040%=      5-min Rain = 0
KBI1 191826Z 34019KT 10/M03 A3032 RMK A01 T01041026  RH  040%=      5-min Rain = 0
KBI1 191827Z 34018KT 10/M03 A3032 RMK A01 T01031025  RH  041%=      5-min Rain = 0
KBI1 191828Z 34016KT 10/M02 A3032 RMK A01 T01031024  RH  041%=      5-min Rain = 0
KBI1 191829Z 33020G25KT 10/M02 A3032 RMK A01 T01041023  RH  041%=      5-min Rain = 0
KBI1 191830Z 33021KT 10/M03 A3032 RMK A01 T01041025  RH  041%=      5-min Rain = 0
KBI1 191831Z 34019KT 10/M02 A3032 RMK A01 T01021024  RH  041%=      5-min Rain = 0
KBI1 191832Z 33019KT 10/M03 A3032 RMK A01 T01021025  RH  041%=      5-min Rain = 0
KBI1 191833Z 34018KT 10/M03 A3032 RMK A01 T01011026  RH  041%=      5-min Rain = 0
KBI1 191834Z 35015KT 10/M03 A3032 RMK A01 T01001025  RH  041%=      5-min Rain = 0
KBI1 191835Z 34017G23KT 10/M02 A3032 RMK A01 T01021021  RH  042%=      5-min Rain = 0
KBI1 191836Z 34019KT 11/M02 A3032 RMK A01 T01051024  RH  040%=      5-min Rain = 0
KBI1 191837Z 35018G24KT 10/M03 A3032 RMK A01 T01041026  RH  040%=      5-min Rain = 0
KBI1 191838Z 34018KT 10/M03 A3032 RMK A01 T01031025  RH  041%=      5-min Rain = 0
KBI1 191839Z 35022KT 10/M03 A3032 RMK A01 T01031028  RH  040%=      5-min Rain = 0
KBI1 191840Z 34018G23KT 10/M03 A3032 RMK A01 T01021029  RH  040%=      5-min Rain = 0
KBI1 191841Z 35018KT 10/M03 A3032 RMK A01 T01031026  RH  040%=      5-min Rain = 0
KBI1 191842Z 34017G22KT 10/M02 A3032 RMK A01 T01041024  RH  040%=      5-min Rain = 0
KBI1 191843Z 35018G25KT 11/M03 A3032 RMK A01 T01061025  RH  040%=      5-min Rain = 0
KBI1 191844Z 36022KT 11/M03 A3032 RMK A01 T01051028  RH  039%=      5-min Rain = 0
KBI1 191845Z 35021KT 10/M03 A3031 RMK A01 T01041028  RH  039%=      5-min Rain = 0
KBI1 191846Z 35018G23KT 10/M03 A3031 RMK A01 T01031028  RH  040%=      5-min Rain = 0
KBI1 191847Z 35016G22KT 10/M03 A3031 RMK A01 T01041025  RH  040%=      5-min Rain = 0
KBI1 191848Z 35015KT 11/M02 A3031 RMK A01 T01061023  RH  040%=      5-min Rain = 0
KBI1 191849Z 34011KT 11/M02 A3031 RMK A01 T01091020  RH  041%=      5-min Rain = 0
KBI1 191850Z 00015KT 11/M02 A3031 RMK A01 T01141016  RH  040%=      5-min Rain = 0
KBI1 191851Z 00020KT 12/M02 A3031 RMK A01 T01151021  RH  039%=      5-min Rain = 0
KBI1 191852Z 35020KT 11/M03 A3031 RMK A01 T01131025  RH  038%=      5-min Rain = 0
KBI1 191853Z 35015G20KT 11/M03 A3031 RMK A01 T01091028  RH  038%=      5-min Rain = 0
KBI1 191854Z 34019G25KT 11/M03 A3031 RMK A01 T01091026  RH  039%=      5-min Rain = 0
KBI1 191855Z 34020KT 11/M03 A3031 RMK A01 T01091028  RH  038%=      5-min Rain = 0
KBI1 191856Z 34019KT 11/M03 A3031 RMK A01 T01091027  RH  038%=      5-min Rain = 0
KBI1 191857Z 34015G20KT 11/M03 A3031 RMK A01 T01101025  RH  039%=      5-min Rain = 0
KBI1 191858Z 35017KT 11/M02 A3031 RMK A01 T01141023  RH  038%=      5-min Rain = 0
KBI1 191859Z 34019G24KT 12/M03 A3031 RMK A01 T01151025  RH  038%=      5-min Rain = 0
KBI1 191900Z 35017KT 11/M03 A3031 RMK A01 T01131028  RH  037%=      5-min Rain = 0
KBI1 191901Z 35018KT 11/M03 A3031 RMK A01 T01121026  RH  038%=      5-min Rain = 0
KBI1 191902Z 35017KT 11/M03 A3031 RMK A01 T01111027  RH  038%=      5-min Rain = 0
KBI1 191903Z 35016KT 11/M03 A3031 RMK A01 T01101027  RH  038%=      5-min Rain = 0
KBI1 191904Z 34014KT 11/M02 A3031 RMK A01 T01111023  RH  039%=      5-min Rain = 0
KBI1 191905Z 34016KT 11/M02 A3031 RMK A01 T01141022  RH  039%=      5-min Rain = 0
KBI1 191906Z 33018G25KT 12/M02 A3031 RMK A01 T01161022  RH  038%=      5-min Rain = 0
KBI1 191907Z 33020KT 12/M03 A3031 RMK A01 T01151025  RH  037%=      5-min Rain = 0
KBI1 191908Z 34016KT 11/M03 A3031 RMK A01 T01121027  RH  038%=      5-min Rain = 0
KBI1 191909Z 34017KT 11/M03 A303 RMK A01 T01111027  RH  038%=      5-min Rain = 0
KBI1 191910Z 35018KT 11/M03 A3031 RMK A01 T01121026  RH  038%=      5-min Rain = 0
KBI1 191911Z 35017KT 11/M03 A3031 RMK A01 T01121027  RH  038%=      5-min Rain = 0
KBI1 191912Z 34015G22KT 11/M03 A3031 RMK A01 T01111026  RH  038%=      5-min Rain = 0
KBI1 191913Z 33017G24KT 11/M02 A3031 RMK A01 T01131024  RH  038%=      5-min Rain = 0
KBI1 191914Z 35018KT 12/M02 A3031 RMK A01 T01151023  RH  038%=      5-min Rain = 0
KBI1 191915Z 35017G22KT 12/M03 A3031 RMK A01 T01151027  RH  037%=      5-min Rain = 0
KBI1 191916Z 35017KT 11/M03 A3031 RMK A01 T01141025  RH  038%=      5-min Rain = 0
KBI1 191917Z 35019KT 12/M03 A3031 RMK A01 T01151027  RH  037%=      5-min Rain = 0
KBI1 191918Z 36015KT 11/M03 A3031 RMK A01 T01131028  RH  037%=      5-min Rain = 0
KBI1 191919Z 34014KT 12/M02 A3031 RMK A01 T01151023  RH  038%=      5-min Rain = 0
KBI1 191920Z 33018KT 12/M02 A303 RMK A01 T01181024  RH  037%=      5-min Rain = 0
KBI1 191921Z 33019KT 12/M03 A303 RMK A01 T01181026  RH  037%=      5-min Rain = 0
KBI1 191922Z 33018KT 12/M03 A303 RMK A01 T01161027  RH  037%=      5-min Rain = 0
KBI1 191923Z 34017G22KT 12/M02 A303 RMK A01 T01161024  RH  038%=      5-min Rain = 0
KBI1 191924Z 34018KT 12/M03 A303 RMK A01 T01161025  RH  037%=      5-min Rain = 0
KBI1 191925Z 34015KT 12/M03 A3031 RMK A01 T01161025  RH  037%=      5-min Rain = 0
KBI1 191926Z 33014KT 12/M02 A303 RMK A01 T01161023  RH  038%=      5-min Rain = 0
KBI1 191927Z 34016KT 12/M03 A303 RMK A01 T01171025  RH  037%=      5-min Rain = 0
KBI1 191928Z 34014KT 12/M02 A303 RMK A01 T01161024  RH  038%=      5-min Rain = 0
KBI1 191929Z 35015KT 12/M02 A303 RMK A01 T01171023  RH  038%=      5-min Rain = 0
KBI1 191930Z 33015KT 12/M02 A303 RMK A01 T01181021  RH  038%=      5-min Rain = 0
KBI1 191931Z 32014KT 12/M03 A303 RMK A01 T01191025  RH  037%=      5-min Rain = 0
KBI1 191932Z 34015KT 12/M02 A303 RMK A01 T01181024  RH  037%=      5-min Rain = 0
KBI1 191933Z 33014KT 12/M02 A303 RMK A01 T01181020  RH  038%=      5-min Rain = 0
KBI1 191934Z 32015KT 12/M02 A303 RMK A01 T01191020  RH  038%=      5-min Rain = 0
KBI1 191935Z 34012G17KT 12/M02 A303 RMK A01 T01191022  RH  037%=      5-min Rain = 0
KBI1 191936Z 34012KT 12/M02 A303 RMK A01 T01201020  RH  038%=      5-min Rain = 0
KBI1 191937Z 35017KT 12/M02 A303 RMK A01 T01201022  RH  037%=      5-min Rain = 0
KBI1 191938Z 34017KT 12/M02 A303 RMK A01 T01191022  RH  037%=      5-min Rain = 0
KBI1 191939Z 34017G22KT 12/M02 A303 RMK A01 T01191023  RH  037%=      5-min Rain = 0
KBI1 191940Z 33015KT 12/M02 A303 RMK A01 T01191023  RH  037%=      5-min Rain = 0
KBI1 191941Z 33015G20KT 12/M02 A303 RMK A01 T01201023  RH  037%=      5-min Rain = 0
KBI1 191942Z 33013KT 12/M02 A303 RMK A01 T01201024  RH  036%=      5-min Rain = 0
KBI1 191943Z 34016KT 12/M02 A303 RMK A01 T01221021  RH  037%=      5-min Rain = 0
KBI1 191944Z 35017KT 12/M03 A303 RMK A01 T01211026  RH  036%=      5-min Rain = 0
KBI1 191945Z 35013KT 12/M03 A303 RMK A01 T01191025  RH  037%=      5-min Rain = 0
KBI1 191946Z 34013KT 12/M03 A303 RMK A01 T01191025  RH  037%=      5-min Rain = 0
KBI1 191947Z 34014G20KT 12/M02 A303 RMK A01 T01191023  RH  037%=      5-min Rain = 0
KBI1 191948Z 34016KT 12/M03 A303 RMK A01 T01201026  RH  036%=      5-min Rain = 0
KBI1 191949Z 35018KT 12/M03 A303 RMK A01 T01171028  RH  036%=      5-min Rain = 0
KBI1 191950Z 35018KT 12/M03 A303 RMK A01 T01161025  RH  037%=      5-min Rain = 0
KBI1 191951Z 34019KT 12/M03 A303 RMK A01 T01171026  RH  037%=      5-min Rain = 0
KBI1 191952Z 35016KT 12/M03 A303 RMK A01 T01181027  RH  036%=      5-min Rain = 0
KBI1 191953Z 34015KT 12/M03 A303 RMK A01 T01161028  RH  036%=      5-min Rain = 0
KBI1 191954Z 35011KT 12/M03 A303 RMK A01 T01151026  RH  037%=      5-min Rain = 0
KBI1 191955Z 00014KT 12/M03 A3029 RMK A01 T01171025  RH  037%=      5-min Rain = 0
KBI1 191956Z 34012KT 12/M02 A303 RMK A01 T01191022  RH  037%=      5-min Rain = 0
KBI1 191957Z 32016KT 12/M03 A3029 RMK A01 T01211026  RH  036%=      5-min Rain = 0
KBI1 191958Z 34014KT 12/M03 A303 RMK A01 T01201026  RH  036%=      5-min Rain = 0
KBI1 191959Z 35016KT 12/M03 A3029 RMK A01 T01201025  RH  036%=      5-min Rain = 0
KBI1 192000Z 35017KT 12/M03 A3029 RMK A01 T01211025  RH  036%=      5-min Rain = 0
KBI1 192001Z 34017KT 12/M03 A3029 RMK A01 T01211027  RH  035%=      5-min Rain = 0
KBI1 192002Z 35017KT 12/M03 A3029 RMK A01 T01201028  RH  036%=      5-min Rain = 0
KBI1 192003Z 35017KT 12/M03 A3029 RMK A01 T01181029  RH  036%=      5-min Rain = 0
KBI1 192004Z 33014KT 12/M03 A3029 RMK A01 T01181025  RH  037%=      5-min Rain = 0
KBI1 192005Z 33012KT 12/M02 A3029 RMK A01 T01221020  RH  037%=      5-min Rain = 0
KBI1 192006Z 33013KT 12/M02 A3029 RMK A01 T01241024  RH  036%=      5-min Rain = 0
KBI1 192007Z 33012KT 12/M02 A3029 RMK A01 T01241024  RH  036%=      5-min Rain = 0
KBI1 192008Z 34014KT 12/M02 A3029 RMK A01 T01231024  RH  036%=      5-min Rain = 0
KBI1 192009Z 35013KT 12/M02 A3029 RMK A01 T01241024  RH  036%=      5-min Rain = 0
KBI1 192010Z 33016KT 13/M02 A3029 RMK A01 T01251022  RH  036%=      5-min Rain = 0
KBI1 192011Z 33016KT 13/M03 A3029 RMK A01 T01251028  RH  034%=      5-min Rain = 0
KBI1 192012Z 34016KT 12/M03 A3029 RMK A01 T01231027  RH  035%=      5-min Rain = 0
KBI1 192013Z 34017KT 12/M03 A3029 RMK A01 T01231027  RH  035%=      5-min Rain = 0
KBI1 192014Z 33017KT 12/M03 A3029 RMK A01 T01221027  RH  035%=      5-min Rain = 0
KBI1 192015Z 34016KT 12/M03 A3029 RMK A01 T01221027  RH  035%=      5-min Rain = 0
KBI1 192016Z 34017KT 12/M03 A3029 RMK A01 T01211028  RH  035%=      5-min Rain = 0
KBI1 192017Z 34015G21KT 12/M03 A3028 RMK A01 T01211027  RH  036%=      5-min Rain = 0
KBI1 192018Z 34015G20KT 12/M03 A3028 RMK A01 T01221025  RH  036%=      5-min Rain = 0
KBI1 192019Z 35013KT 12/M03 A3029 RMK A01 T01201029  RH  035%=      5-min Rain = 0
KBI1 192020Z 33014G21KT 12/M02 A3029 RMK A01 T01211023  RH  037%=      5-min Rain = 0
KBI1 192021Z 32018KT 13/M03 A3029 RMK A01 T01251025  RH  035%=      5-min Rain = 0
KBI1 192022Z 33015KT 12/M03 A3029 RMK A01 T01231028  RH  035%=      5-min Rain = 0
KBI1 192023Z 32013KT 12/M03 A3028 RMK A01 T01221027  RH  035%=      5-min Rain = 0
KBI1 192024Z 33015KT 12/M03 A3028 RMK A01 T01221026  RH  036%=      5-min Rain = 0
KBI1 192025Z 33018KT 12/M03 A3028 RMK A01 T01221026  RH  036%=      5-min Rain = 0
KBI1 192026Z 32015KT 12/M03 A3028 RMK A01 T01231027  RH  035%=      5-min Rain = 0
KBI1 192027Z 33016KT 12/M03 A3028 RMK A01 T01231026  RH  035%=      5-min Rain = 0
KBI1 192028Z 33016KT 12/M03 A3028 RMK A01 T01231026  RH  035%=      5-min Rain = 0
KBI1 192029Z 33016KT 12/M03 A3028 RMK A01 T01231027  RH  035%=      5-min Rain = 0
KBI1 192030Z 34018KT 12/M03 A3028 RMK A01 T01231027  RH  035%=      5-min Rain = 0
KBI1 192031Z 34013KT 12/M03 A3028 RMK A01 T01221027  RH  035%=      5-min Rain = 0
KBI1 192032Z 34013KT 12/M03 A3028 RMK A01 T01231025  RH  036%=      5-min Rain = 0
KBI1 192033Z 34014KT 13/M02 A3028 RMK A01 T01251022  RH  036%=      5-min Rain = 0
KBI1 192034Z 33018KT 13/M02 A3028 RMK A01 T01271023  RH  035%=      5-min Rain = 0
KBI1 192035Z 33017KT 13/M03 A3028 RMK A01 T01261027  RH  035%=      5-min Rain = 0
KBI1 192036Z 33018KT 12/M03 A3028 RMK A01 T01241025  RH  035%=      5-min Rain = 0
KBI1 192037Z 32012KT 12/M03 A3028 RMK A01 T01241027  RH  035%=      5-min Rain = 0
KBI1 192038Z 33014G19KT 12/M03 A3028 RMK A01 T01241026  RH  035%=      5-min Rain = 0
KBI1 192039Z 33016G21KT 13/M02 A3028 RMK A01 T01261023  RH  035%=      5-min Rain = 0
KBI1 192040Z 34015G20KT 13/M02 A3028 RMK A01 T01271024  RH  035%=      5-min Rain = 0
KBI1 192041Z 33014KT 13/M03 A3028 RMK A01 T01271026  RH  035%=      5-min Rain = 0
KBI1 192042Z 33014KT 12/M03 A3028 RMK A01 T01241030  RH  034%=      5-min Rain = 0
KBI1 192043Z 33011KT 12/M03 A3028 RMK A01 T01221028  RH  035%=      5-min Rain = 0
KBI1 192044Z 34012G17KT 12/M03 A3028 RMK A01 T01221026  RH  035%=      5-min Rain = 0
KBI1 192045Z 34015G20KT 12/M02 A3028 RMK A01 T01241022  RH  036%=      5-min Rain = 0
KBI1 192046Z 34016KT 13/M02 A3028 RMK A01 T01271022  RH  035%=      5-min Rain = 0
KBI1 192047Z 34016KT 13/M02 A3028 RMK A01 T01281022  RH  035%=      5-min Rain = 0
KBI1 192048Z 34015KT 13/M03 A3028 RMK A01 T01271026  RH  034%=      5-min Rain = 0
KBI1 192049Z 33012KT 12/M03 A3028 RMK A01 T01241025  RH  035%=      5-min Rain = 0
KBI1 192050Z 34010KT 13/M03 A3028 RMK A01 T01251025  RH  035%=      5-min Rain = 0
KBI1 192051Z 33011KT 13/M02 A3028 RMK A01 T01251024  RH  035%=      5-min Rain = 0
KBI1 192052Z 34014KT 13/M02 A3028 RMK A01 T01261022  RH  036%=      5-min Rain = 0
KBI1 192053Z 36015KT 13/M02 A3028 RMK A01 T01271023  RH  035%=      5-min Rain = 0
KBI1 192054Z 33017KT 13/M02 A3028 RMK A01 T01271022  RH  035%=      5-min Rain = 0
KBI1 192055Z 31014KT 13/M02 A3028 RMK A01 T01281023  RH  035%=      5-min Rain = 0
KBI1 192056Z 31016KT 13/M03 A3028 RMK A01 T01251031  RH  033%=      5-min Rain = 0
KBI1 192057Z 32012G17KT 12/M03 A3028 RMK A01 T01231028  RH  035%=      5-min Rain = 0
KBI1 192058Z 34012KT 13/M02 A3028 RMK A01 T01261024  RH  035%=      5-min Rain = 0
KBI1 192059Z 34015KT 13/M02 A3028 RMK A01 T01291021  RH  035%=      5-min Rain = 0
KBI1 192100Z 34017KT 13/M02 A3028 RMK A01 T01291024  RH  034%=      5-min Rain = 0
KBI1 192101Z 34012KT 13/M03 A3028 RMK A01 T01271025  RH  035%=      5-min Rain = 0
KBI1 192102Z 32013G19KT 13/M02 A3028 RMK A01 T01281023  RH  035%=      5-min Rain = 0
KBI1 192103Z 32016KT 13/M03 A3028 RMK A01 T01271030  RH  033%=      5-min Rain = 0
KBI1 192104Z 32014G19KT 13/M03 A3028 RMK A01 T01251030  RH  034%=      5-min Rain = 0
KBI1 192105Z 33013KT 13/M03 A3028 RMK A01 T01251029  RH  034%=      5-min Rain = 0
KBI1 192106Z 32011KT 13/M03 A3028 RMK A01 T01271025  RH  035%=      5-min Rain = 0
KBI1 192107Z 32016KT 13/M02 A3028 RMK A01 T01291024  RH  035%=      5-min Rain = 0
KBI1 192108Z 33015G21KT 13/M02 A3028 RMK A01 T01291023  RH  035%=      5-min Rain = 0
KBI1 192109Z 32018KT 13/M02 A3028 RMK A01 T01301024  RH  034%=      5-min Rain = 0
KBI1 192110Z 34015G20KT 13/M03 A3028 RMK A01 T01291026  RH  034%=      5-min Rain = 0
KBI1 192111Z 34013KT 13/M03 A3028 RMK A01 T01281027  RH  034%=      5-min Rain = 0
KBI1 192112Z 34014G19KT 13/M03 A3028 RMK A01 T01271027  RH  034%=      5-min Rain = 0
KBI1 192113Z 33017KT 13/M03 A3028 RMK A01 T01281025  RH  034%=      5-min Rain = 0
KBI1 192114Z 34014KT 13/M03 A3028 RMK A01 T01281026  RH  034%=      5-min Rain = 0
KBI1 192115Z 34014KT 13/M03 A3028 RMK A01 T01281027  RH  034%=      5-min Rain = 0
KBI1 192116Z 34016G21KT 13/M03 A3028 RMK A01 T01281025  RH  034%=      5-min Rain = 0
KBI1 192117Z 33018KT 13/M03 A3028 RMK A01 T01281028  RH  034%=      5-min Rain = 0
KBI1 192118Z 33016G21KT 13/M03 A3028 RMK A01 T01261027  RH  034%=      5-min Rain = 0
KBI1 192119Z 33016KT 13/M03 A3028 RMK A01 T01261026  RH  035%=      5-min Rain = 0
KBI1 192120Z 33012KT 13/M03 A3028 RMK A01 T01271030  RH  034%=      5-min Rain = 0
KBI1 192121Z 34008G14KT 13/M03 A3028 RMK A01 T01271025  RH  035%=      5-min Rain = 0
KBI1 192122Z 33013G18KT 13/M02 A3028 RMK A01 T01311022  RH  035%=      5-min Rain = 0
KBI1 192123Z 31015KT 13/M02 A3028 RMK A01 T01331022  RH  034%=      5-min Rain = 0
KBI1 192124Z 31014KT 13/M03 A3028 RMK A01 T01311029  RH  033%=      5-min Rain = 0
KBI1 192125Z 32012KT 13/M03 A3028 RMK A01 T01291029  RH  033%=      5-min Rain = 0
KBI1 192126Z 31012KT 13/M03 A3028 RMK A01 T01281029  RH  034%=      5-min Rain = 0
KBI1 192127Z 31014KT 13/M03 A3027 RMK A01 T01281027  RH  034%=      5-min Rain = 0
KBI1 192128Z 33013G18KT 13/M03 A3028 RMK A01 T01281026  RH  034%=      5-min Rain = 0
KBI1 192129Z 33016KT 13/M03 A3028 RMK A01 T01291026  RH  034%=      5-min Rain = 0
KBI1 192130Z 33014KT 13/M03 A3027 RMK A01 T01281028  RH  034%=      5-min Rain = 0
KBI1 192131Z 32014KT 13/M03 A3027 RMK A01 T01271028  RH  034%=      5-min Rain = 0
KBI1 192132Z 32011G16KT 13/M03 A3027 RMK A01 T01271027  RH  034%=      5-min Rain = 0
KBI1 192133Z 33013KT 13/M03 A3027 RMK A01 T01281027  RH  034%=      5-min Rain = 0
KBI1 192134Z 33013KT 13/M03 A3027 RMK A01 T01281026  RH  034%=      5-min Rain = 0
KBI1 192135Z 33013KT 13/M02 A3027 RMK A01 T01291023  RH  035%=      5-min Rain = 0
KBI1 192136Z 33011KT 13/M02 A3027 RMK A01 T01311022  RH  035%=      5-min Rain = 0
KBI1 192137Z 32012KT 13/M02 A3027 RMK A01 T01321024  RH  034%=      5-min Rain = 0
KBI1 192138Z 32013KT 13/M03 A3027 RMK A01 T01331025  RH  033%=      5-min Rain = 0
KBI1 192139Z 32011KT 13/M03 A3027 RMK A01 T01331027  RH  033%=      5-min Rain = 0
KBI1 192140Z 31013KT 13/M03 A3027 RMK A01 T01321026  RH  033%=      5-min Rain = 0
KBI1 192141Z 31013KT 13/M03 A3027 RMK A01 T01311028  RH  033%=      5-min Rain = 0
KBI1 192142Z 32013G20KT 13/M03 A3027 RMK A01 T01301026  RH  034%=      5-min Rain = 0
KBI1 192143Z 31018KT 13/M03 A3027 RMK A01 T01311027  RH  033%=      5-min Rain = 0
KBI1 192144Z 32014KT 13/M03 A3027 RMK A01 T01291030  RH  033%=      5-min Rain = 0
KBI1 192145Z 32015KT 13/M03 A3027 RMK A01 T01291028  RH  033%=      5-min Rain = 0
KBI1 192146Z 31017KT 13/M03 A3027 RMK A01 T01291030  RH  033%=      5-min Rain = 0
KBI1 192147Z 31017KT 13/M03 A3027 RMK A01 T01271032  RH  033%=      5-min Rain = 0
KBI1 192148Z 31016KT 13/M03 A3027 RMK A01 T01251032  RH  033%=      5-min Rain = 0
KBI1 192149Z 32014KT 13/M03 A3027 RMK A01 T01251029  RH  034%=      5-min Rain = 0
KBI1 192150Z 33012KT 13/M03 A3027 RMK A01 T01271029  RH  034%=      5-min Rain = 0
KBI1 192151Z 32012KT 13/M03 A3027 RMK A01 T01281027  RH  034%=      5-min Rain = 0
KBI1 192152Z 32014KT 13/M03 A3027 RMK A01 T01291028  RH  033%=      5-min Rain = 0
KBI1 192153Z 32012KT 13/M03 A3027 RMK A01 T01291027  RH  034%=      5-min Rain = 0
KBI1 192154Z 31013KT 13/M03 A3027 RMK A01 T01301028  RH  033%=      5-min Rain = 0
KBI1 192155Z 31012KT 13/M03 A3027 RMK A01 T01301026  RH  034%=      5-min Rain = 0
KBI1 192156Z 32009KT 13/M03 A3027 RMK A01 T01301026  RH  034%=      5-min Rain = 0
KBI1 192157Z 33013KT 13/M03 A3027 RMK A01 T01321025  RH  034%=      5-min Rain = 0
KBI1 192158Z 32012KT 13/M03 A3027 RMK A01 T01321026  RH  033%=      5-min Rain = 0
KBI1 192159Z 32011KT 13/M03 A3027 RMK A01 T01321026  RH  033%=      5-min Rain = 0
KBI1 192200Z 33013KT 13/M03 A3027 RMK A01 T01311027  RH  033%=      5-min Rain = 0
KBI1 192201Z 34015KT 13/M03 A3027 RMK A01 T01321026  RH  033%=      5-min Rain = 0
KBI1 192202Z 32012G17KT 13/M03 A3027 RMK A01 T01331025  RH  033%=      5-min Rain = 0
KBI1 192203Z 32010KT 13/M03 A3027 RMK A01 T01331025  RH  033%=      5-min Rain = 0
KBI1 192204Z 32011KT 13/M03 A3027 RMK A01 T01341027  RH  033%=      5-min Rain = 0
KBI1 192205Z 34014KT 13/M03 A3027 RMK A01 T01331027  RH  033%=      5-min Rain = 0
KBI1 192206Z 33013KT 13/M03 A3026 RMK A01 T01321026  RH  033%=      5-min Rain = 0
KBI1 192207Z 34014G19KT 13/M03 A3027 RMK A01 T01321026  RH  033%=      5-min Rain = 0
KBI1 192208Z 34017KT 13/M03 A3026 RMK A01 T01321028  RH  033%=      5-min Rain = 0
KBI1 192209Z 33016KT 13/M03 A3026 RMK A01 T01321029  RH  033%=      5-min Rain = 0
KBI1 192210Z 33014KT 13/M03 A3026 RMK A01 T01321029  RH  033%=      5-min Rain = 0
KBI1 192211Z 32012KT 13/M03 A3026 RMK A01 T01311029  RH  033%=      5-min Rain = 0
KBI1 192212Z 32012KT 13/M03 A3027 RMK A01 T01311030  RH  032%=      5-min Rain = 0
KBI1 192213Z 32014KT 13/M03 A3026 RMK A01 T01301030  RH  033%=      5-min Rain = 0
KBI1 192214Z 32015KT 13/M03 A3026 RMK A01 T01301031  RH  032%=      5-min Rain = 0
KBI1 192215Z 32016KT 13/M03 A3026 RMK A01 T01291032  RH  032%=      5-min Rain = 0
KBI1 192216Z 32013KT 13/M03 A3026 RMK A01 T01291031  RH  033%=      5-min Rain = 0
KBI1 192217Z 33012KT 13/M03 A3026 RMK A01 T01301029  RH  033%=      5-min Rain = 0
KBI1 192218Z 32011KT 13/M03 A3026 RMK A01 T01311032  RH  032%=      5-min Rain = 0
KBI1 192219Z 33013KT 13/M03 A3026 RMK A01 T01321029  RH  033%=      5-min Rain = 0
KBI1 192220Z 35013KT 13/M03 A3026 RMK A01 T01331027  RH  033%=      5-min Rain = 0
KBI1 192221Z 35013KT 13/M03 A3026 RMK A01 T01331029  RH  032%=      5-min Rain = 0
KBI1 192222Z 34012KT 13/M03 A3026 RMK A01 T01321031  RH  032%=      5-min Rain = 0
KBI1 192223Z 33011KT 13/M03 A3026 RMK A01 T01321029  RH  033%=      5-min Rain = 0
KBI1 192224Z 33011KT 13/M03 A3026 RMK A01 T01321030  RH  032%=      5-min Rain = 0
KBI1 192225Z 34012KT 13/M03 A3027 RMK A01 T01321030  RH  032%=      5-min Rain = 0
KBI1 192226Z 34011KT 13/M03 A3027 RMK A01 T01311031  RH  032%=      5-min Rain = 0
KBI1 192227Z 33010KT 13/M03 A3027 RMK A01 T01311030  RH  033%=      5-min Rain = 0
KBI1 192228Z 33008KT 13/M03 A3027 RMK A01 T01311030  RH  032%=      5-min Rain = 0
KBI1 192229Z 33011KT 13/M03 A3027 RMK A01 T01321027  RH  033%=      5-min Rain = 0
KBI1 192230Z 33013KT 13/M03 A3027 RMK A01 T01331026  RH  033%=      5-min Rain = 0
KBI1 192231Z 34014KT 13/M03 A3027 RMK A01 T01341026  RH  033%=      5-min Rain = 0
KBI1 192232Z 33014KT 13/M03 A3027 RMK A01 T01331027  RH  033%=      5-min Rain = 0
KBI1 192233Z 33011KT 13/M03 A3027 RMK A01 T01321030  RH  032%=      5-min Rain = 0
KBI1 192234Z 33014KT 13/M03 A3027 RMK A01 T01321030  RH  032%=      5-min Rain = 0
KBI1 192235Z 33012KT 13/M03 A3027 RMK A01 T01321031  RH  032%=      5-min Rain = 0
KBI1 192236Z 34013KT 13/M03 A3027 RMK A01 T01321030  RH  032%=      5-min Rain = 0
KBI1 192237Z 33011KT 13/M03 A3027 RMK A01 T01311030  RH  032%=      5-min Rain = 0
KBI1 192238Z 33013KT 13/M03 A3027 RMK A01 T01321031  RH  032%=      5-min Rain = 0
KBI1 192239Z 33012KT 13/M03 A3027 RMK A01 T01321032  RH  032%=      5-min Rain = 0
KBI1 192240Z 32013KT 13/M03 A3027 RMK A01 T01311032  RH  032%=      5-min Rain = 0
KBI1 192241Z 33012KT 13/M03 A3027 RMK A01 T01311032  RH  032%=      5-min Rain = 0
KBI1 192242Z 33012KT 13/M03 A3027 RMK A01 T01311030  RH  033%=      5-min Rain = 0
KBI1 192243Z 33011KT 13/M03 A3027 RMK A01 T01311029  RH  033%=      5-min Rain = 0
KBI1 192244Z 33012KT 13/M03 A3027 RMK A01 T01311030  RH  033%=      5-min Rain = 0
KBI1 192245Z 33011KT 13/M03 A3027 RMK A01 T01301030  RH  033%=      5-min Rain = 0
KBI1 192246Z 32011KT 13/M03 A3027 RMK A01 T01301029  RH  033%=      5-min Rain = 0
KBI1 192247Z 32012KT 13/M03 A3027 RMK A01 T01301031  RH  033%=      5-min Rain = 0
KBI1 192248Z 32009KT 13/M03 A3027 RMK A01 T01301031  RH  033%=      5-min Rain = 0
KBI1 192249Z 32009G14KT 13/M03 A3027 RMK A01 T01291031  RH  033%=      5-min Rain = 0
KBI1 192250Z 33010KT 13/M03 A3027 RMK A01 T01291029  RH  033%=      5-min Rain = 0
KBI1 192251Z 32013KT 13/M03 A3027 RMK A01 T01301027  RH  034%=      5-min Rain = 0
KBI1 192252Z 32010KT 13/M03 A3027 RMK A01 T01291030  RH  033%=      5-min Rain = 0
KBI1 192253Z 34011KT 13/M03 A3027 RMK A01 T01301030  RH  033%=      5-min Rain = 0
KBI1 192254Z 33008KT 13/M03 A3027 RMK A01 T01291029  RH  033%=      5-min Rain = 0
KBI1 192255Z 34010KT 13/M03 A3027 RMK A01 T01301026  RH  034%=      5-min Rain = 0
KBI1 192256Z 34012KT 13/M03 A3027 RMK A01 T01301027  RH  033%=      5-min Rain = 0
KBI1 192257Z 33012KT 13/M03 A3027 RMK A01 T01301028  RH  033%=      5-min Rain = 0
KBI1 192258Z 34011KT 13/M03 A3027 RMK A01 T01291027  RH  034%=      5-min Rain = 0
KBI1 192259Z 33008KT 13/M03 A3027 RMK A01 T01291025  RH  034%=      5-min Rain = 0
KBI1 192300Z 33007KT 13/M03 A3027 RMK A01 T01301025  RH  034%=      5-min Rain = 0
KBI1 192301Z 32010KT 13/M03 A3027 RMK A01 T01311027  RH  033%=      5-min Rain = 0
KBI1 192302Z 31010KT 13/M03 A3027 RMK A01 T01311029  RH  033%=      5-min Rain = 0
KBI1 192303Z 31012KT 13/M03 A3026 RMK A01 T01301031  RH  032%=      5-min Rain = 0
KBI1 192304Z 32012KT 13/M03 A3027 RMK A01 T01301032  RH  032%=      5-min Rain = 0
KBI1 192305Z 32009KT 13/M03 A3027 RMK A01 T01301030  RH  033%=      5-min Rain = 0
KBI1 192306Z 31012KT 13/M03 A3026 RMK A01 T01291032  RH  032%=      5-min Rain = 0
KBI1 192307Z 32011KT 13/M03 A3026 RMK A01 T01291031  RH  033%=      5-min Rain = 0
KBI1 192308Z 33012KT 13/M03 A3027 RMK A01 T01291029  RH  033%=      5-min Rain = 0
KBI1 192309Z 33011KT 13/M03 A3027 RMK A01 T01291028  RH  033%=      5-min Rain = 0
KBI1 192310Z 33011KT 13/M03 A3027 RMK A01 T01291029  RH  033%=      5-min Rain = 0
KBI1 192311Z 33008KT 13/M03 A3027 RMK A01 T01291028  RH  033%=      5-min Rain = 0
KBI1 192312Z 33011KT 13/M03 A3027 RMK A01 T01291028  RH  034%=      5-min Rain = 0
KBI1 192313Z 33012KT 13/M03 A3027 RMK A01 T01291029  RH  033%=      5-min Rain = 0
KBI1 192314Z 33012KT 13/M03 A3027 RMK A01 T01281029  RH  033%=      5-min Rain = 0
KBI1 192315Z 32009KT 13/M03 A3027 RMK A01 T01281028  RH  034%=      5-min Rain = 0
KBI1 192316Z 32010KT 13/M03 A3027 RMK A01 T01281028  RH  034%=      5-min Rain = 0
KBI1 192317Z 32008KT 13/M03 A3027 RMK A01 T01291029  RH  033%=      5-min Rain = 0
KBI1 192318Z 33007KT 13/M03 A3027 RMK A01 T01281030  RH  033%=      5-min Rain = 0
KBI1 192319Z 33011KT 13/M03 A3027 RMK A01 T01281027  RH  034%=      5-min Rain = 0
KBI1 192320Z 33011KT 13/M03 A3027 RMK A01 T01281029  RH  033%=      5-min Rain = 0
KBI1 192321Z 34009KT 13/M03 A3027 RMK A01 T01271029  RH  034%=      5-min Rain = 0
KBI1 192322Z 34011KT 13/M03 A3027 RMK A01 T01271030  RH  033%=      5-min Rain = 0
KBI1 192323Z 33012KT 13/M03 A3027 RMK A01 T01271030  RH  033%=      5-min Rain = 0
KBI1 192324Z 32009KT 13/M03 A3027 RMK A01 T01271030  RH  033%=      5-min Rain = 0
KBI1 192325Z 32008KT 13/M03 A3027 RMK A01 T01261028  RH  034%=      5-min Rain = 0
KBI1 192326Z 32010KT 13/M03 A3027 RMK A01 T01261028  RH  034%=      5-min Rain = 0
KBI1 192327Z 32007KT 13/M03 A3027 RMK A01 T01271028  RH  034%=      5-min Rain = 0
KBI1 192328Z 32008KT 13/M03 A3027 RMK A01 T01261029  RH  034%=      5-min Rain = 0
KBI1 192329Z 32011KT 13/M03 A3027 RMK A01 T01271028  RH  034%=      5-min Rain = 0
KBI1 192330Z 32010KT 13/M03 A3027 RMK A01 T01261029  RH  034%=      5-min Rain = 0
KBI1 192331Z 33010KT 13/M03 A3027 RMK A01 T01261030  RH  034%=      5-min Rain = 0
KBI1 192332Z 34011KT 13/M03 A3027 RMK A01 T01251030  RH  034%=      5-min Rain = 0
KBI1 192333Z 33008KT 13/M03 A3027 RMK A01 T01251029  RH  034%=      5-min Rain = 0
KBI1 192334Z 33010KT 12/M03 A3027 RMK A01 T01241027  RH  035%=      5-min Rain = 0
KBI1 192335Z 33010KT 12/M03 A3027 RMK A01 T01241028  RH  035%=      5-min Rain = 0
KBI1 192336Z 33010KT 12/M03 A3027 RMK A01 T01231028  RH  035%=      5-min Rain = 0
KBI1 192337Z 34009KT 12/M03 A3027 RMK A01 T01231028  RH  035%=      5-min Rain = 0
KBI1 192338Z 34008KT 12/M03 A3027 RMK A01 T01221028  RH  035%=      5-min Rain = 0
KBI1 192339Z 34008KT 12/M03 A3027 RMK A01 T01221027  RH  035%=      5-min Rain = 0
KBI1 192340Z 34009KT 12/M03 A3027 RMK A01 T01211027  RH  035%=      5-min Rain = 0
KBI1 192341Z 34008KT 12/M03 A3027 RMK A01 T01211028  RH  035%=      5-min Rain = 0
KBI1 192342Z 34008KT 12/M03 A3027 RMK A01 T01201028  RH  035%=      5-min Rain = 0
KBI1 192343Z 33009KT 12/M03 A3027 RMK A01 T01201027  RH  036%=      5-min Rain = 0
KBI1 192344Z 33009KT 12/M03 A3027 RMK A01 T01191029  RH  036%=      5-min Rain = 0
KBI1 192345Z 34009KT 12/M03 A3027 RMK A01 T01191029  RH  036%=      5-min Rain = 0
KBI1 192346Z 33008KT 12/M03 A3027 RMK A01 T01191028  RH  036%=      5-min Rain = 0
KBI1 192347Z 33007KT 12/M03 A3027 RMK A01 T01191026  RH  036%=      5-min Rain = 0
KBI1 192348Z 33008KT 12/M03 A3027 RMK A01 T01181026  RH  037%=      5-min Rain = 0
KBI1 192349Z 33008KT 12/M03 A3027 RMK A01 T01171026  RH  037%=      5-min Rain = 0
KBI1 192350Z 33008KT 12/M03 A3027 RMK A01 T01161026  RH  037%=      5-min Rain = 0
KBI1 192351Z 33008KT 12/M03 A3027 RMK A01 T01161026  RH  037%=      5-min Rain = 0
KBI1 192352Z 33007KT 12/M03 A3027 RMK A01 T01151025  RH  037%=      5-min Rain = 0
KBI1 192353Z 33008KT 12/M03 A3027 RMK A01 T01151025  RH  038%=      5-min Rain = 0
KBI1 192354Z 33008KT 11/M03 A3027 RMK A01 T01141025  RH  038%=      5-min Rain = 0
KBI1 192355Z 34008KT 11/M03 A3027 RMK A01 T01141026  RH  038%=      5-min Rain = 0
KBI1 192356Z 33007KT 11/M03 A3027 RMK A01 T01131025  RH  038%=      5-min Rain = 0
KBI1 192357Z 33007KT 11/M03 A3027 RMK A01 T01131025  RH  038%=      5-min Rain = 0
KBI1 192358Z 33007KT 11/M02 A3027 RMK A01 T01111024  RH  039%=      5-min Rain = 0
KBI1 192359Z 34007KT 11/M02 A3027 RMK A01 T01101024  RH  039%=      5-min Rain = 0
KBI1 200000Z 34006KT 11/M02 A3027 RMK A01 T01081024  RH  040%=      5-min Rain = 0
KBI1 200001Z 34006KT 11/M02 A3027 RMK A01 T01071023  RH  040%=      5-min Rain = 0
KBI1 200002Z 34006KT 11/M02 A3027 RMK A01 T01061023  RH  041%=      5-min Rain = 0
KBI1 200003Z 34006KT 11/M02 A3027 RMK A01 T01051023  RH  041%=      5-min Rain = 0
KBI1 200004Z 34005KT 10/M02 A3027 RMK A01 T01041023  RH  041%=      5-min Rain = 0
KBI1 200005Z 34005KT 10/M02 A3027 RMK A01 T01031023  RH  041%=      5-min Rain = 0
KBI1 200006Z 34005KT 10/M02 A3027 RMK A01 T01031023  RH  041%=      5-min Rain = 0
KBI1 200007Z 34005KT 10/M02 A3027 RMK A01 T01021023  RH  041%=      5-min Rain = 0
KBI1 200008Z 33005KT 10/M02 A3027 RMK A01 T01011023  RH  042%=      5-min Rain = 0
KBI1 200009Z 34006KT 10/M02 A3027 RMK A01 T01001023  RH  042%=      5-min Rain = 0
KBI1 200010Z 33006KT 10/M02 A3027 RMK A01 T00991023  RH  042%=      5-min Rain = 0
KBI1 200011Z 33006KT 10/M02 A3027 RMK A01 T00991023  RH  042%=      5-min Rain = 0
KBI1 200012Z 34006KT 10/M02 A3027 RMK A01 T00981023  RH  043%=      5-min Rain = 0
KBI1 200013Z 34006KT 10/M02 A3027 RMK A01 T00961023  RH  043%=      5-min Rain = 0
KBI1 200014Z 34006KT 10/M02 A3027 RMK A01 T00951022  RH  044%=      5-min Rain = 0
KBI1 200015Z 34006KT 09/M02 A3027 RMK A01 T00941022  RH  044%=      5-min Rain = 0
KBI1 200016Z 34006KT 09/M02 A3027 RMK A01 T00931022  RH  044%=      5-min Rain = 0
KBI1 200017Z 35005KT 09/M02 A3027 RMK A01 T00931022  RH  044%=      5-min Rain = 0
KBI1 200018Z 35006KT 09/M02 A3027 RMK A01 T00931022  RH  044%=      5-min Rain = 0
KBI1 200019Z 35006KT 09/M02 A3027 RMK A01 T00931023  RH  044%=      5-min Rain = 0
KBI1 200020Z 35006KT 09/M02 A3027 RMK A01 T00931023  RH  044%=      5-min Rain = 0
KBI1 200021Z 35006KT 09/M02 A3027 RMK A01 T00941023  RH  044%=      5-min Rain = 0
KBI1 200022Z 35006KT 09/M02 A3027 RMK A01 T00941023  RH  044%=      5-min Rain = 0
KBI1 200023Z 35006KT 09/M02 A3027 RMK A01 T00941023  RH  044%=      5-min Rain = 0
KBI1 200024Z 35006KT 09/M02 A3027 RMK A01 T00931023  RH  044%=      5-min Rain = 0
KBI1 200025Z 35005KT 09/M02 A3027 RMK A01 T00921023  RH  045%=      5-min Rain = 0
KBI1 200026Z 35005KT 09/M02 A3027 RMK A01 T00921022  RH  045%=      5-min Rain = 0
KBI1 200027Z 35005KT 09/M02 A3027 RMK A01 T00911023  RH  045%=      5-min Rain = 0
KBI1 200028Z 35005KT 09/M02 A3027 RMK A01 T00911024  RH  044%=      5-min Rain = 0
KBI1 200029Z 34005KT 09/M03 A3027 RMK A01 T00911025  RH  044%=      5-min Rain = 0
KBI1 200030Z 34005KT 09/M03 A3027 RMK A01 T00911025  RH  044%=      5-min Rain = 0
KBI1 200031Z 35005KT 09/M03 A3027 RMK A01 T00921025  RH  044%=      5-min Rain = 0
KBI1 200032Z 35005KT 09/M03 A3027 RMK A01 T00921025  RH  044%=      5-min Rain = 0
KBI1 200033Z 35004KT 09/M02 A3027 RMK A01 T00921024  RH  044%=      5-min Rain = 0
KBI1 200034Z 35005KT 09/M02 A3027 RMK A01 T00911024  RH  044%=      5-min Rain = 0
KBI1 200035Z 34004KT 09/M03 A3027 RMK A01 T00911025  RH  044%=      5-min Rain = 0
KBI1 200036Z 34005KT 09/M03 A3027 RMK A01 T00911025  RH  044%=      5-min Rain = 0
KBI1 200037Z 34005KT 09/M03 A3027 RMK A01 T00911025  RH  044%=      5-min Rain = 0
KBI1 200038Z 34004KT 09/M03 A3027 RMK A01 T00911025  RH  044%=      5-min Rain = 0
KBI1 200039Z 34004KT 09/M03 A3027 RMK A01 T00911026  RH  044%=      5-min Rain = 0
KBI1 200040Z 35004KT 09/M03 A3027 RMK A01 T00911025  RH  044%=      5-min Rain = 0
KBI1 200041Z 34004KT 09/M03 A3027 RMK A01 T00911025  RH  044%=      5-min Rain = 0
KBI1 200042Z 34004KT 09/M03 A3027 RMK A01 T00901025  RH  044%=      5-min Rain = 0
KBI1 200043Z 34004KT 09/M02 A3027 RMK A01 T00901024  RH  045%=      5-min Rain = 0
KBI1 200044Z 35004KT 09/M02 A3027 RMK A01 T00901024  RH  044%=      5-min Rain = 0
KBI1 200045Z 35004KT 09/M03 A3027 RMK A01 T00901025  RH  044%=      5-min Rain = 0
KBI1 200046Z 35004KT 09/M03 A3027 RMK A01 T00901025  RH  044%=      5-min Rain = 0
KBI1 200047Z 35003KT 09/M03 A3027 RMK A01 T00891025  RH  045%=      5-min Rain = 0
KBI1 200048Z 35004KT 09/M03 A3027 RMK A01 T00881025  RH  045%=      5-min Rain = 0
KBI1 200049Z 35004KT 09/M03 A3027 RMK A01 T00881025  RH  045%=      5-min Rain = 0
KBI1 200050Z 35004KT 09/M03 A3027 RMK A01 T00871025  RH  045%=      5-min Rain = 0
KBI1 200051Z 35004KT 09/M03 A3027 RMK A01 T00871025  RH  045%=      5-min Rain = 0
KBI1 200052Z 35004KT 09/M02 A3027 RMK A01 T00871024  RH  045%=      5-min Rain = 0
KBI1 200053Z 36004KT 09/M03 A3027 RMK A01 T00861025  RH  046%=      5-min Rain = 0
KBI1 200054Z 36004KT 09/M03 A3027 RMK A01 T00851026  RH  046%=      5-min Rain = 0
KBI1 200055Z 35004KT 09/M03 A3027 RMK A01 T00851026  RH  046%=      5-min Rain = 0
KBI1 200056Z 35004KT 08/M03 A3027 RMK A01 T00841026  RH  046%=      5-min Rain = 0
KBI1 200057Z 35004KT 08/M03 A3028 RMK A01 T00831026  RH  046%=      5-min Rain = 0
KBI1 200058Z 35004KT 08/M03 A3028 RMK A01 T00831025  RH  046%=      5-min Rain = 0
KBI1 200059Z 35003KT 08/M03 A3028 RMK A01 T00831025  RH  046%=      5-min Rain = 0
KBI1 200100Z 35003KT 08/M03 A3028 RMK A01 T00831025  RH  046%=      5-min Rain = 0
KBI1 200101Z 35003KT 08/M03 A3028 RMK A01 T00831025  RH  047%=      5-min Rain = 0
KBI1 200102Z 35002KT 08/M03 A3028 RMK A01 T00781025  RH  048%=      5-min Rain = 0
KBI1 200103Z 35002KT 08/M03 A3028 RMK A01 T00761025  RH  049%=      5-min Rain = 0
KBI1 200104Z 35001KT 07/M02 A3028 RMK A01 T00741024  RH  050%=      5-min Rain = 0
KBI1 200105Z 34001KT 07/M02 A3028 RMK A01 T00741024  RH  050%=      5-min Rain = 0
KBI1 200106Z 34002KT 08/M02 A3028 RMK A01 T00751023  RH  050%=      5-min Rain = 0
KBI1 200107Z 34002KT 08/M02 A3028 RMK A01 T00761023  RH  050%=      5-min Rain = 0
KBI1 200108Z 34001KT 08/M02 A3028 RMK A01 T00771023  RH  049%=      5-min Rain = 0
KBI1 200109Z 34001KT 08/M02 A3028 RMK A01 T00771024  RH  049%=      5-min Rain = 0
KBI1 200110Z 34001KT 08/M02 A3028 RMK A01 T00781024  RH  049%=      5-min Rain = 0
KBI1 200111Z 34001KT 08/M02 A3028 RMK A01 T00781024  RH  049%=      5-min Rain = 0
KBI1 200112Z 34001KT 08/M02 A3028 RMK A01 T00781024  RH  049%=      5-min Rain = 0
KBI1 200113Z 34001KT 08/M02 A3028 RMK A01 T00781024  RH  048%=      5-min Rain = 0
KBI1 200114Z 33001KT 08/M02 A3028 RMK A01 T00781024  RH  048%=      5-min Rain = 0
KBI1 200115Z 33002KT 08/M03 A3028 RMK A01 T00781025  RH  048%=      5-min Rain = 0
KBI1 200116Z 33001KT 08/M03 A3028 RMK A01 T00781025  RH  048%=      5-min Rain = 0
KBI1 200117Z 33002KT 08/M03 A3028 RMK A01 T00781026  RH  048%=      5-min Rain = 0
KBI1 200118Z 33002KT 08/M03 A3028 RMK A01 T00781025  RH  048%=      5-min Rain = 0
KBI1 200119Z 33002KT 08/M03 A3028 RMK A01 T00781025  RH  048%=      5-min Rain = 0
KBI1 200120Z 33002KT 08/M03 A3028 RMK A01 T00781025  RH  048%=      5-min Rain = 0
KBI1 200121Z 33002KT 08/M03 A3028 RMK A01 T00771025  RH  048%=      5-min Rain = 0
KBI1 200122Z 33002KT 08/M03 A3028 RMK A01 T00761025  RH  049%=      5-min Rain = 0
KBI1 200123Z 33002KT 08/M02 A3028 RMK A01 T00751024  RH  049%=      5-min Rain = 0
KBI1 200124Z 33002KT 08/M02 A3028 RMK A01 T00751024  RH  050%=      5-min Rain = 0
KBI1 200125Z 33002KT 07/M02 A3028 RMK A01 T00741023  RH  050%=      5-min Rain = 0
KBI1 200126Z 33002KT 07/M02 A3028 RMK A01 T00731023  RH  051%=      5-min Rain = 0
KBI1 200127Z 33002KT 07/M02 A3028 RMK A01 T00731022  RH  051%=      5-min Rain = 0
KBI1 200128Z 33002KT 07/M02 A3028 RMK A01 T00721023  RH  051%=      5-min Rain = 0
KBI1 200129Z 33002KT 07/M02 A3028 RMK A01 T00711024  RH  051%=      5-min Rain = 0
KBI1 200130Z 33002KT 07/M02 A3028 RMK A01 T00701024  RH  051%=      5-min Rain = 0
KBI1 200131Z 33002KT 07/M02 A3028 RMK A01 T00691024  RH  052%=      5-min Rain = 0
KBI1 200132Z 32002KT 07/M02 A3028 RMK A01 T00681022  RH  053%=      5-min Rain = 0
KBI1 200133Z 32002KT 07/M02 A3028 RMK A01 T00671020  RH  053%=      5-min Rain = 0
KBI1 200134Z 32002KT 07/M02 A3028 RMK A01 T00671019  RH  054%=      5-min Rain = 0
KBI1 200135Z 32002KT 07/M02 A3028 RMK A01 T00661018  RH  055%=      5-min Rain = 0
KBI1 200136Z 32002KT 07/M02 A3028 RMK A01 T00651019  RH  055%=      5-min Rain = 0
KBI1 200137Z 32002KT 06/M02 A3028 RMK A01 T00641020  RH  055%=      5-min Rain = 0
KBI1 200138Z 32002KT 06/M02 A3028 RMK A01 T00631021  RH  055%=      5-min Rain = 0
KBI1 200139Z 32002KT 06/M02 A3029 RMK A01 T00631022  RH  055%=      5-min Rain = 0
KBI1 200140Z 32001KT 06/M02 A3029 RMK A01 T00621022  RH  055%=      5-min Rain = 0
KBI1 200141Z 32001KT 06/M02 A3029 RMK A01 T00621023  RH  055%=      5-min Rain = 0
KBI1 200142Z 32001KT 06/M02 A3029 RMK A01 T00621023  RH  054%=      5-min Rain = 0
KBI1 200143Z 32001KT 06/M02 A3029 RMK A01 T00631024  RH  054%=      5-min Rain = 0
KBI1 200144Z 32001KT 06/M03 A3029 RMK A01 T00641025  RH  053%=      5-min Rain = 0
KBI1 200145Z 32001KT 07/M02 A3029 RMK A01 T00661024  RH  053%=      5-min Rain = 0
KBI1 200146Z 32001KT 07/M02 A3029 RMK A01 T00671024  RH  052%=      5-min Rain = 0
KBI1 200147Z 32001KT 07/M03 A3029 RMK A01 T00691025  RH  051%=      5-min Rain = 0
KBI1 200148Z 32001KT 07/M03 A3029 RMK A01 T00701025  RH  051%=      5-min Rain = 0
KBI1 200149Z 32000KT 07/M03 A3029 RMK A01 T00711026  RH  050%=      5-min Rain = 0
KBI1 200150Z 35000KT 07/M03 A3029 RMK A01 T00721026  RH  050%=      5-min Rain = 0
KBI1 200151Z 01001KT 07/M02 A3029 RMK A01 T00741023  RH  050%=      5-min Rain = 0
KBI1 200152Z 01001KT 08/M02 A3029 RMK A01 T00751018  RH  052%=      5-min Rain = 0
KBI1 200153Z 01001KT 08/M02 A3029 RMK A01 T00751015  RH  053%=      5-min Rain = 0
KBI1 200154Z 01001KT 08/M01 A3029 RMK A01 T00751013  RH  053%=      5-min Rain = 0
KBI1 200155Z 01001KT 08/M02 A3029 RMK A01 T00751015  RH  053%=      5-min Rain = 0
KBI1 200156Z 01001KT 08/M02 A3029 RMK A01 T00751017  RH  052%=      5-min Rain = 0
KBI1 200157Z 01001KT 07/M02 A3029 RMK A01 T00741019  RH  052%=      5-min Rain = 0
KBI1 200158Z 01001KT 07/M02 A3029 RMK A01 T00731020  RH  052%=      5-min Rain = 0
KBI1 200159Z 01001KT 07/M02 A3029 RMK A01 T00721020  RH  052%=      5-min Rain = 0
KBI1 200200Z 00001KT 07/M02 A3029 RMK A01 T00711021  RH  052%=      5-min Rain = 0
KBI1 200201Z 35001KT 07/M02 A3029 RMK A01 T00701020  RH  053%=      5-min Rain = 0
KBI1 200202Z 35001KT 07/M02 A3029 RMK A01 T00681020  RH  053%=      5-min Rain = 0
KBI1 200203Z 35001KT 07/M02 A3029 RMK A01 T00671019  RH  054%=      5-min Rain = 0
KBI1 200204Z 34001KT 07/M02 A3029 RMK A01 T00661017  RH  056%=      5-min Rain = 0
KBI1 200205Z 33002KT 07/M02 A3029 RMK A01 T00651018  RH  055%=      5-min Rain = 0
KBI1 200206Z 33001KT 07/M02 A3029 RMK A01 T00651018  RH  055%=      5-min Rain = 0
KBI1 200207Z 33001KT 07/M02 A3029 RMK A01 T00651018  RH  055%=      5-min Rain = 0
KBI1 200208Z 34002KT 07/M02 A3029 RMK A01 T00651019  RH  055%=      5-min Rain = 0
KBI1 200209Z 34002KT 06/M02 A3029 RMK A01 T00641019  RH  055%=      5-min Rain = 0
KBI1 200210Z 34002KT 06/M02 A303 RMK A01 T00641019  RH  055%=      5-min Rain = 0
KBI1 200211Z 34001KT 06/M02 A303 RMK A01 T00641018  RH  056%=      5-min Rain = 0
KBI1 200212Z 34001KT 06/M02 A303 RMK A01 T00631018  RH  056%=      5-min Rain = 0
KBI1 200213Z 34001KT 06/M02 A303 RMK A01 T00611018  RH  057%=      5-min Rain = 0
KBI1 200214Z 34001KT 06/M02 A303 RMK A01 T00601017  RH  058%=      5-min Rain = 0
KBI1 200215Z 34001KT 06/M02 A303 RMK A01 T00591018  RH  058%=      5-min Rain = 0
KBI1 200216Z 34001KT 06/M02 A303 RMK A01 T00581019  RH  058%=      5-min Rain = 0
KBI1 200217Z 34001KT 06/M02 A303 RMK A01 T00571018  RH  059%=      5-min Rain = 0
KBI1 200218Z 34000KT 06/M02 A303 RMK A01 T00561017  RH  059%=      5-min Rain = 0
KBI1 200219Z 34000KT 06/M02 A303 RMK A01 T00551017  RH  060%=      5-min Rain = 0
KBI1 200220Z 00000KT 06/M02 A303 RMK A01 T00551017  RH  060%=      5-min Rain = 0
KBI1 200221Z 24002KT 06/M02 A303 RMK A01 T00571017  RH  059%=      5-min Rain = 0
KBI1 200222Z 24002KT 06/M02 A303 RMK A01 T00591017  RH  058%=      5-min Rain = 0
KBI1 200223Z 25002KT 06/M02 A303 RMK A01 T00601019  RH  057%=      5-min Rain = 0
KBI1 200224Z 25002KT 06/M02 A303 RMK A01 T00611020  RH  056%=      5-min Rain = 0
KBI1 200225Z 25002KT 06/M02 A303 RMK A01 T00621021  RH  055%=      5-min Rain = 0
KBI1 200226Z 25002KT 06/M02 A303 RMK A01 T00621022  RH  055%=      5-min Rain = 0
KBI1 200227Z 25002KT 06/M02 A303 RMK A01 T00611021  RH  056%=      5-min Rain = 0
KBI1 200228Z 25002KT 06/M02 A303 RMK A01 T00611021  RH  056%=      5-min Rain = 0
KBI1 200229Z 25001KT 06/M02 A303 RMK A01 T00601020  RH  056%=      5-min Rain = 0
KBI1 200230Z 25000KT 06/M02 A303 RMK A01 T00581019  RH  058%=      5-min Rain = 0
KBI1 200231Z 00000KT 06/M02 A303 RMK A01 T00561019  RH  059%=      5-min Rain = 0
KBI1 200232Z 00000KT 06/M02 A303 RMK A01 T00551020  RH  058%=      5-min Rain = 0
KBI1 200233Z 00000KT 06/M02 A303 RMK A01 T00561021  RH  058%=      5-min Rain = 0
KBI1 200234Z 00000KT 06/M02 A303 RMK A01 T00581020  RH  057%=      5-min Rain = 0
KBI1 200235Z 00000KT 06/M02 A303 RMK A01 T00591018  RH  058%=      5-min Rain = 0
KBI1 200236Z 21000KT 06/M02 A303 RMK A01 T00611016  RH  058%=      5-min Rain = 0
KBI1 200237Z 21000KT 06/M02 A303 RMK A01 T00621015  RH  058%=      5-min Rain = 0
KBI1 200238Z 00000KT 06/M01 A303 RMK A01 T00621013  RH  058%=      5-min Rain = 0
KBI1 200239Z 00000KT 06/M01 A303 RMK A01 T00621014  RH  058%=      5-min Rain = 0
KBI1 200240Z 00000KT 06/M02 A303 RMK A01 T00621015  RH  058%=      5-min Rain = 0
KBI1 200241Z 00000KT 06/M02 A303 RMK A01 T00621016  RH  057%=      5-min Rain = 0
KBI1 200242Z 00000KT 06/M02 A303 RMK A01 T00611016  RH  058%=      5-min Rain = 0
KBI1 200243Z 00000KT 06/M02 A303 RMK A01 T00611015  RH  058%=      5-min Rain = 0
KBI1 200244Z 00000KT 06/M02 A303 RMK A01 T00601015  RH  058%=      5-min Rain = 0
KBI1 200245Z 00000KT 06/M02 A303 RMK A01 T00591016  RH  059%=      5-min Rain = 0
KBI1 200246Z 00000KT 06/M02 A303 RMK A01 T00571017  RH  059%=      5-min Rain = 0
KBI1 200247Z 21000KT 06/M02 A303 RMK A01 T00561017  RH  059%=      5-min Rain = 0
KBI1 200248Z 21000KT 06/M02 A303 RMK A01 T00561016  RH  060%=      5-min Rain = 0
KBI1 200249Z 14002KT 06/M02 A303 RMK A01 T00561016  RH  060%=      5-min Rain = 0
KBI1 200250Z 13002KT 06/M02 A303 RMK A01 T00561018  RH  059%=      5-min Rain = 0
KBI1 200251Z 13002KT 06/M02 A303 RMK A01 T00561020  RH  058%=      5-min Rain = 0
KBI1 200252Z 13002KT 06/M02 A303 RMK A01 T00561020  RH  058%=      5-min Rain = 0
KBI1 200253Z 13001KT 06/M02 A303 RMK A01 T00561020  RH  058%=      5-min Rain = 0
KBI1 200254Z 13001KT 06/M02 A303 RMK A01 T00561019  RH  058%=      5-min Rain = 0
KBI1 200255Z 13001KT 06/M02 A303 RMK A01 T00561019  RH  058%=      5-min Rain = 0
KBI1 200256Z 13001KT 06/M02 A303 RMK A01 T00571019  RH  058%=      5-min Rain = 0
KBI1 200257Z 13001KT 06/M02 A303 RMK A01 T00581018  RH  058%=      5-min Rain = 0
KBI1 200258Z 13001KT 06/M02 A303 RMK A01 T00581019  RH  058%=      5-min Rain = 0
KBI1 200259Z 13001KT 06/M02 A303 RMK A01 T00591018  RH  058%=      5-min Rain = 0
KBI1 200300Z 13001KT 06/M02 A303 RMK A01 T00581018  RH  058%=      5-min Rain = 0
KBI1 200301Z 14001KT 06/M02 A303 RMK A01 T00581017  RH  058%=      5-min Rain = 0
KBI1 200302Z 14001KT 06/M02 A303 RMK A01 T00571018  RH  058%=      5-min Rain = 0
KBI1 200303Z 14001KT 06/M02 A303 RMK A01 T00571018  RH  059%=      5-min Rain = 0
KBI1 200304Z 14002KT 06/M02 A303 RMK A01 T00561018  RH  059%=      5-min Rain = 0
KBI1 200305Z 14002KT 06/M02 A303 RMK A01 T00561019  RH  059%=      5-min Rain = 0
KBI1 200306Z 13002KT 06/M02 A303 RMK A01 T00551019  RH  059%=      5-min Rain = 0
KBI1 200307Z 14002KT 05/M02 A303 RMK A01 T00531019  RH  060%=      5-min Rain = 0
KBI1 200308Z 15003KT 05/M02 A303 RMK A01 T00531018  RH  060%=      5-min Rain = 0
KBI1 200309Z 15003KT 05/M02 A303 RMK A01 T00531018  RH  060%=      5-min Rain = 0
KBI1 200310Z 15004KT 05/M02 A303 RMK A01 T00541019  RH  059%=      5-min Rain = 0
KBI1 200311Z 16004KT 06/M02 A303 RMK A01 T00551019  RH  059%=      5-min Rain = 0
KBI1 200312Z 16004KT 06/M02 A303 RMK A01 T00551019  RH  059%=      5-min Rain = 0
KBI1 200313Z 16004KT 06/M02 A303 RMK A01 T00551018  RH  059%=      5-min Rain = 0
KBI1 200314Z 16004KT 05/M02 A303 RMK A01 T00531018  RH  060%=      5-min Rain = 0
KBI1 200315Z 16004KT 05/M02 A303 RMK A01 T00521018  RH  060%=      5-min Rain = 0
KBI1 200316Z 16003KT 05/M02 A303 RMK A01 T00521018  RH  060%=      5-min Rain = 0
KBI1 200317Z 16003KT 05/M02 A303 RMK A01 T00521019  RH  060%=      5-min Rain = 0
KBI1 200318Z 16003KT 05/M02 A303 RMK A01 T00521021  RH  060%=      5-min Rain = 0
KBI1 200319Z 16003KT 05/M02 A303 RMK A01 T00521021  RH  059%=      5-min Rain = 0
KBI1 200320Z 16003KT 05/M02 A303 RMK A01 T00521020  RH  059%=      5-min Rain = 0
KBI1 200321Z 15003KT 05/M02 A303 RMK A01 T00521020  RH  060%=      5-min Rain = 0
KBI1 200322Z 15002KT 05/M02 A303 RMK A01 T00511020  RH  060%=      5-min Rain = 0
KBI1 200323Z 15002KT 05/M02 A303 RMK A01 T00501020  RH  061%=      5-min Rain = 0
KBI1 200324Z 15002KT 05/M02 A303 RMK A01 T00491021  RH  061%=      5-min Rain = 0
KBI1 200325Z 15002KT 05/M02 A303 RMK A01 T00481021  RH  061%=      5-min Rain = 0
KBI1 200326Z 15002KT 05/M02 A303 RMK A01 T00471020  RH  062%=      5-min Rain = 0
KBI1 200327Z 15002KT 05/M02 A303 RMK A01 T00461019  RH  063%=      5-min Rain = 0
KBI1 200328Z 15001KT 05/M02 A303 RMK A01 T00451019  RH  063%=      5-min Rain = 0
KBI1 200329Z 15002KT 04/M02 A303 RMK A01 T00441020  RH  063%=      5-min Rain = 0
KBI1 200330Z 15002KT 04/M02 A303 RMK A01 T00431020  RH  063%=      5-min Rain = 0
KBI1 200331Z 15001KT 04/M02 A303 RMK A01 T00431020  RH  064%=      5-min Rain = 0
KBI1 200332Z 14002KT 04/M02 A303 RMK A01 T00421019  RH  064%=      5-min Rain = 0
KBI1 200333Z 14001KT 04/M02 A303 RMK A01 T00421019  RH  065%=      5-min Rain = 0
KBI1 200334Z 12002KT 04/M02 A303 RMK A01 T00421019  RH  064%=      5-min Rain = 0
KBI1 200335Z 12002KT 04/M02 A303 RMK A01 T00431018  RH  064%=      5-min Rain = 0
KBI1 200336Z 11002KT 04/M02 A303 RMK A01 T00431019  RH  064%=      5-min Rain = 0
KBI1 200337Z 11002KT 04/M02 A303 RMK A01 T00431017  RH  065%=      5-min Rain = 0
KBI1 200338Z 12002KT 04/M02 A303 RMK A01 T00441015  RH  066%=      5-min Rain = 0
KBI1 200339Z 12002KT 04/M01 A303 RMK A01 T00441014  RH  066%=      5-min Rain = 0
KBI1 200340Z 12003KT 04/M01 A303 RMK A01 T00441014  RH  066%=      5-min Rain = 0
KBI1 200341Z 12002KT 04/M02 A303 RMK A01 T00441016  RH  065%=      5-min Rain = 0
KBI1 200342Z 12002KT 04/M02 A303 RMK A01 T00431019  RH  064%=      5-min Rain = 0
KBI1 200343Z 12002KT 04/M02 A303 RMK A01 T00441019  RH  064%=      5-min Rain = 0
KBI1 200344Z 12002KT 05/M02 A303 RMK A01 T00451018  RH  064%=      5-min Rain = 0
KBI1 200345Z 12002KT 05/M02 A3031 RMK A01 T00461018  RH  064%=      5-min Rain = 0
KBI1 200346Z 12002KT 05/M02 A3031 RMK A01 T00461018  RH  063%=      5-min Rain = 0
KBI1 200347Z 12002KT 05/M02 A3031 RMK A01 T00461019  RH  063%=      5-min Rain = 0
KBI1 200348Z 12002KT 05/M02 A3031 RMK A01 T00461020  RH  062%=      5-min Rain = 0
KBI1 200349Z 12002KT 05/M02 A3031 RMK A01 T00451020  RH  063%=      5-min Rain = 0
KBI1 200350Z 12002KT 04/M02 A3031 RMK A01 T00441021  RH  063%=      5-min Rain = 0
KBI1 200351Z 13002KT 04/M02 A3031 RMK A01 T00431021  RH  063%=      5-min Rain = 0
KBI1 200352Z 13001KT 04/M02 A3031 RMK A01 T00421019  RH  065%=      5-min Rain = 0
KBI1 200353Z 13001KT 04/M02 A3032 RMK A01 T00411017  RH  066%=      5-min Rain = 0
KBI1 200354Z 14002KT 04/M02 A3032 RMK A01 T00411017  RH  066%=      5-min Rain = 0
KBI1 200355Z 14002KT 04/M02 A3032 RMK A01 T00421017  RH  066%=      5-min Rain = 0
KBI1 200356Z 14002KT 04/M02 A3031 RMK A01 T00411017  RH  066%=      5-min Rain = 0
KBI1 200357Z 14002KT 04/M02 A3031 RMK A01 T00421017  RH  066%=      5-min Rain = 0
KBI1 200358Z 14002KT 04/M02 A3031 RMK A01 T00411017  RH  066%=      5-min Rain = 0
KBI1 200359Z 14002KT 04/M02 A3031 RMK A01 T00411017  RH  066%=      5-min Rain = 0
KBI1 200400Z 14002KT 04/M02 A3031 RMK A01 T00401017  RH  066%=      5-min Rain = 0
KBI1 200401Z 14001KT 04/M02 A3032 RMK A01 T00391017  RH  067%=      5-min Rain = 0
KBI1 200402Z 14001KT 04/M02 A3032 RMK A01 T00391017  RH  067%=      5-min Rain = 0
KBI1 200403Z 14001KT 04/M02 A3032 RMK A01 T00381017  RH  067%=      5-min Rain = 0
KBI1 200404Z 14001KT 04/M02 A3032 RMK A01 T00381017  RH  067%=      5-min Rain = 0
KBI1 200405Z 14000KT 04/M02 A3032 RMK A01 T00381017  RH  067%=      5-min Rain = 0
KBI1 200406Z 14000KT 04/M02 A3032 RMK A01 T00381017  RH  067%=      5-min Rain = 0
KBI1 200407Z 00000KT 04/M02 A3032 RMK A01 T00391016  RH  067%=      5-min Rain = 0
KBI1 200408Z 14000KT 04/M02 A3032 RMK A01 T00391016  RH  067%=      5-min Rain = 0
KBI1 200409Z 14000KT 04/M02 A3032 RMK A01 T00391017  RH  067%=      5-min Rain = 0
KBI1 200410Z 14000KT 04/M02 A3032 RMK A01 T00381017  RH  067%=      5-min Rain = 0
KBI1 200411Z 00000KT 04/M02 A3032 RMK A01 T00381017  RH  067%=      5-min Rain = 0
KBI1 200412Z 00000KT 04/M02 A3032 RMK A01 T00371018  RH  068%=      5-min Rain = 0
KBI1 200413Z 00000KT 04/M02 A3032 RMK A01 T00351019  RH  068%=      5-min Rain = 0
KBI1 200414Z 00000KT 03/M02 A3032 RMK A01 T00341019  RH  068%=      5-min Rain = 0
KBI1 200415Z 00000KT 03/M02 A3032 RMK A01 T00331019  RH  068%=      5-min Rain = 0
KBI1 200416Z 00000KT 03/M02 A3033 RMK A01 T00341019  RH  069%=      5-min Rain = 0
KBI1 200417Z 00000KT 03/M02 A3033 RMK A01 T00331019  RH  068%=      5-min Rain = 0
KBI1 200418Z 00000KT 03/M02 A3033 RMK A01 T00331019  RH  068%=      5-min Rain = 0
KBI1 200419Z 00000KT 03/M02 A3033 RMK A01 T00321020  RH  069%=      5-min Rain = 0
KBI1 200420Z 00000KT 03/M02 A3032 RMK A01 T00301021  RH  069%=      5-min Rain = 0
KBI1 200421Z 00000KT 03/M02 A3032 RMK A01 T00271022  RH  070%=      5-min Rain = 0
KBI1 200422Z 00000KT 03/M02 A3032 RMK A01 T00271020  RH  071%=      5-min Rain = 0
KBI1 200423Z 00000KT 03/M02 A3033 RMK A01 T00261020  RH  071%=      5-min Rain = 0
KBI1 200424Z 00000KT 03/M02 A3033 RMK A01 T00261020  RH  071%=      5-min Rain = 0
KBI1 200425Z 00000KT 03/M02 A3033 RMK A01 T00261021  RH  071%=      5-min Rain = 0
KBI1 200426Z 00000KT 03/M02 A3033 RMK A01 T00271020  RH  071%=      5-min Rain = 0
KBI1 200427Z 00000KT 03/M02 A3034 RMK A01 T00281020  RH  071%=      5-min Rain = 0
KBI1 200428Z 00000KT 03/M02 A3034 RMK A01 T00281019  RH  071%=      5-min Rain = 0
KBI1 200429Z 14001KT 03/M02 A3034 RMK A01 T00281020  RH  071%=      5-min Rain = 0
KBI1 200430Z 14001KT 03/M02 A3034 RMK A01 T00281020  RH  071%=      5-min Rain = 0
KBI1 200431Z 28001KT 03/M02 A3034 RMK A01 T00281019  RH  071%=      5-min Rain = 0
KBI1 200432Z 28001KT 03/M02 A3034 RMK A01 T00291020  RH  071%=      5-min Rain = 0
KBI1 200433Z 28001KT 03/M02 A3034 RMK A01 T00291020  RH  070%=      5-min Rain = 0
KBI1 200434Z 28001KT 03/M02 A3034 RMK A01 T00281021  RH  070%=      5-min Rain = 0
KBI1 200435Z 28001KT 03/M02 A3034 RMK A01 T00271022  RH  070%=      5-min Rain = 0
KBI1 200436Z 25001KT 03/M02 A3034 RMK A01 T00271022  RH  070%=      5-min Rain = 0
KBI1 200437Z 23001KT 03/M02 A3034 RMK A01 T00261023  RH  070%=      5-min Rain = 0
KBI1 200438Z 23001KT 03/M02 A3034 RMK A01 T00251023  RH  070%=      5-min Rain = 0
KBI1 200439Z 23001KT 03/M02 A3034 RMK A01 T00251023  RH  071%=      5-min Rain = 0
KBI1 200440Z 23001KT 03/M02 A3034 RMK A01 T00251022  RH  071%=      5-min Rain = 0
KBI1 200441Z 23001KT 03/M02 A3034 RMK A01 T00251022  RH  071%=      5-min Rain = 0
KBI1 200442Z 23002KT 03/M02 A3034 RMK A01 T00251022  RH  071%=      5-min Rain = 0
KBI1 200443Z 23001KT 03/M02 A3035 RMK A01 T00251021  RH  072%=      5-min Rain = 0
KBI1 200444Z 23001KT 03/M02 A3035 RMK A01 T00251021  RH  072%=      5-min Rain = 0
KBI1 200445Z 23001KT 03/M02 A3035 RMK A01 T00251021  RH  072%=      5-min Rain = 0
KBI1 200446Z 00000KT 03/M02 A3034 RMK A01 T00251021  RH  072%=      5-min Rain = 0
KBI1 200447Z 12001KT 03/M02 A3034 RMK A01 T00251022  RH  071%=      5-min Rain = 0
KBI1 200448Z 12003KT 03/M02 A3033 RMK A01 T00251019  RH  072%=      5-min Rain = 0
KBI1 200449Z 12004KT 03/M02 A3032 RMK A01 T00261017  RH  073%=      5-min Rain = 0
KBI1 200450Z 12004KT 03/M02 A3032 RMK A01 T00281018  RH  072%=      5-min Rain = 0
KBI1 200451Z 12004KT 03/M02 A3032 RMK A01 T00301017  RH  071%=      5-min Rain = 0
KBI1 200452Z 11004KT 03/M02 A3032 RMK A01 T00311017  RH  071%=      5-min Rain = 0
KBI1 200453Z 12003KT 03/M02 A3032 RMK A01 T00331017  RH  070%=      5-min Rain = 0
KBI1 200454Z 12003KT 03/M02 A3032 RMK A01 T00341018  RH  069%=      5-min Rain = 0
KBI1 200455Z 13003KT 04/M02 A3032 RMK A01 T00351018  RH  068%=      5-min Rain = 0
KBI1 200456Z 13003KT 04/M02 A3032 RMK A01 T00361018  RH  068%=      5-min Rain = 0
KBI1 200457Z 12004KT 04/M02 A3032 RMK A01 T00361018  RH  068%=      5-min Rain = 0
KBI1 200458Z 12004KT 04/M02 A3032 RMK A01 T00371019  RH  067%=      5-min Rain = 0
KBI1 200459Z 12004KT 04/M02 A3032 RMK A01 T00381020  RH  066%=      5-min Rain = 0
KBI1 200500Z 12005KT 04/M02 A3031 RMK A01 T00401020  RH  065%=      5-min Rain = 0
KBI1 200501Z 13005KT 04/M02 A3031 RMK A01 T00411021  RH  064%=      5-min Rain = 0
KBI1 200502Z 13004KT 04/M02 A3031 RMK A01 T00411022  RH  064%=      5-min Rain = 0
KBI1 200503Z 13004KT 04/M02 A3031 RMK A01 T00411022  RH  064%=      5-min Rain = 0
KBI1 200504Z 13004KT 04/M02 A3032 RMK A01 T00401022  RH  064%=      5-min Rain = 0
KBI1 200505Z 13003KT 04/M02 A3032 RMK A01 T00401023  RH  064%=      5-min Rain = 0
KBI1 200506Z 13003KT 04/M02 A3032 RMK A01 T00401022  RH  064%=      5-min Rain = 0
KBI1 200507Z 12003KT 04/M02 A3032 RMK A01 T00391022  RH  064%=      5-min Rain = 0
KBI1 200508Z 12003KT 04/M02 A3032 RMK A01 T00381023  RH  064%=      5-min Rain = 0
KBI1 200509Z 11003KT 04/M02 A3032 RMK A01 T00381022  RH  065%=      5-min Rain = 0
KBI1 200510Z 11003KT 04/M02 A3032 RMK A01 T00381023  RH  064%=      5-min Rain = 0
KBI1 200511Z 11003KT 04/M02 A3032 RMK A01 T00391024  RH  064%=      5-min Rain = 0
KBI1 200512Z 12004KT 04/M02 A3031 RMK A01 T00401023  RH  064%=      5-min Rain = 0
KBI1 200513Z 13005KT 04/M02 A3031 RMK A01 T00401023  RH  063%=      5-min Rain = 0
KBI1 200514Z 13005KT 04/M02 A303 RMK A01 T00391024  RH  064%=      5-min Rain = 0
KBI1 200515Z 12004KT 04/M02 A303 RMK A01 T00371024  RH  064%=      5-min Rain = 0
KBI1 200516Z 12005KT 04/M02 A3031 RMK A01 T00361024  RH  065%=      5-min Rain = 0
KBI1 200517Z 11004KT 04/M03 A3031 RMK A01 T00351025  RH  065%=      5-min Rain = 0
KBI1 200518Z 10003KT 04/M02 A3031 RMK A01 T00351024  RH  065%=      5-min Rain = 0
KBI1 200519Z 11004KT 04/M02 A3031 RMK A01 T00351024  RH  066%=      5-min Rain = 0
KBI1 200520Z 12004KT 04/M02 A3031 RMK A01 T00351024  RH  066%=      5-min Rain = 0
KBI1 200521Z 12004KT 03/M02 A3031 RMK A01 T00341024  RH  065%=      5-min Rain = 0
KBI1 200522Z 12004KT 04/M02 A3031 RMK A01 T00351024  RH  065%=      5-min Rain = 0
KBI1 200523Z 12004KT 03/M02 A3031 RMK A01 T00341024  RH  066%=      5-min Rain = 0
KBI1 200524Z 11003KT 03/M02 A3032 RMK A01 T00341024  RH  066%=      5-min Rain = 0
KBI1 200525Z 11003KT 03/M02 A3032 RMK A01 T00341023  RH  066%=      5-min Rain = 0
KBI1 200526Z 11003KT 03/M02 A3032 RMK A01 T00341023  RH  067%=      5-min Rain = 0
KBI1 200527Z 12003KT 03/M02 A3032 RMK A01 T00341022  RH  067%=      5-min Rain = 0
KBI1 200528Z 12003KT 03/M02 A3032 RMK A01 T00341022  RH  067%=      5-min Rain = 0
KBI1 200529Z 13003KT 03/M02 A3032 RMK A01 T00331022  RH  067%=      5-min Rain = 0
KBI1 200530Z 14003KT 03/M02 A3032 RMK A01 T00331022  RH  067%=      5-min Rain = 0
KBI1 200531Z 15003KT 03/M02 A3032 RMK A01 T00331022  RH  067%=      5-min Rain = 0
KBI1 200532Z 15003KT 03/M02 A3032 RMK A01 T00331021  RH  068%=      5-min Rain = 0
KBI1 200533Z 15003KT 03/M02 A3032 RMK A01 T00321021  RH  068%=      5-min Rain = 0
KBI1 200534Z 15003KT 03/M02 A3032 RMK A01 T00321021  RH  068%=      5-min Rain = 0
KBI1 200535Z 16004KT 03/M02 A3032 RMK A01 T00311022  RH  068%=      5-min Rain = 0
KBI1 200536Z 17004KT 03/M02 A3032 RMK A01 T00301022  RH  069%=      5-min Rain = 0
KBI1 200537Z 17004KT 03/M02 A3032 RMK A01 T00291023  RH  069%=      5-min Rain = 0
KBI1 200538Z 17004KT 03/M03 A3032 RMK A01 T00271025  RH  069%=      5-min Rain = 0
KBI1 200539Z 17004KT 03/M03 A3032 RMK A01 T00261026  RH  069%=      5-min Rain = 0
KBI1 200540Z 17004KT 03/M03 A3032 RMK A01 T00261025  RH  069%=      5-min Rain = 0
KBI1 200541Z 17003KT 03/M03 A3032 RMK A01 T00251025  RH  070%=      5-min Rain = 0
KBI1 200542Z 17003KT 03/M02 A3032 RMK A01 T00251024  RH  070%=      5-min Rain = 0
KBI1 200543Z 17003KT 03/M02 A3032 RMK A01 T00251024  RH  070%=      5-min Rain = 0
KBI1 200544Z 17003KT 03/M02 A3032 RMK A01 T00251024  RH  070%=      5-min Rain = 0
KBI1 200545Z 17004KT 03/M02 A3032 RMK A01 T00251024  RH  070%=      5-min Rain = 0
KBI1 200546Z 17004KT 02/M03 A3032 RMK A01 T00241025  RH  070%=      5-min Rain = 0
KBI1 200547Z 17005KT 02/M03 A3032 RMK A01 T00241025  RH  070%=      5-min Rain = 0
KBI1 200548Z 17005KT 02/M03 A3032 RMK A01 T00231025  RH  070%=      5-min Rain = 0
KBI1 200549Z 17005KT 02/M03 A3032 RMK A01 T00231025  RH  071%=      5-min Rain = 0
KBI1 200550Z 17005KT 02/M03 A3032 RMK A01 T00231025  RH  071%=      5-min Rain = 0
KBI1 200551Z 18005KT 02/M02 A3032 RMK A01 T00221024  RH  071%=      5-min Rain = 0
KBI1 200552Z 18005KT 02/M02 A3032 RMK A01 T00221024  RH  072%=      5-min Rain = 0
KBI1 200553Z 18004KT 02/M02 A3032 RMK A01 T00221023  RH  072%=      5-min Rain = 0
KBI1 200554Z 18004KT 02/M02 A3032 RMK A01 T00231023  RH  072%=      5-min Rain = 0
KBI1 200555Z 18004KT 02/M02 A3032 RMK A01 T00231023  RH  072%=      5-min Rain = 0
KBI1 200556Z 17004KT 02/M02 A3032 RMK A01 T00231023  RH  072%=      5-min Rain = 0
KBI1 200557Z 17004KT 02/M02 A3032 RMK A01 T00231023  RH  072%=      5-min Rain = 0
KBI1 200558Z 17003KT 02/M02 A3032 RMK A01 T00231023  RH  072%=      5-min Rain = 0
KBI1 200559Z 17003KT 02/M02 A3032 RMK A01 T00231023  RH  072%=      5-min Rain = 0

Page generated in 0.1475 seconds.